Wetterdaten: Freitag, 06.06.2014
Datum Zeit Temp. Aussen +5cm Feuchte Auss Luftdruck Regen Sonnenschein Regendauer UV Solar Windben
06.06.2014 00:00 11,7 C 9,4 C 86 % 1015,5 hPa 0,0 l/m 0 min 0 min 0,0 UV-I 0 W/m 0,0 km/h (0 Bft)
06.06.2014 00:02 11,7 C 9,4 C 86 % 1015,5 hPa 0,0 l/m 0 min 0 min 0,0 UV-I 0 W/m 2,1 km/h (1 Bft)
06.06.2014 00:06 11,6 C 9,4 C 86 % 1015,5 hPa 0,0 l/m 0 min 0 min 0,0 UV-I 0 W/m 4,2 km/h (1 Bft)
06.06.2014 00:08 11,5 C 9,4 C 87 % 1015,5 hPa 0,0 l/m 0 min 0 min 0,0 UV-I 0 W/m 2,1 km/h (1 Bft)
06.06.2014 00:10 11,5 C 9,4 C 87 % 1015,5 hPa 0,0 l/m 0 min 0 min 0,0 UV-I 0 W/m 2,1 km/h (1 Bft)
06.06.2014 00:12 11,4 C 9,4 C 87 % 1015,5 hPa 0,0 l/m 0 min 0 min 0,0 UV-I 0 W/m 4,2 km/h (1 Bft)
06.06.2014 00:14 11,3 C 9,4 C 87 % 1015,5 hPa 0,0 l/m 0 min 0 min 0,0 UV-I 0 W/m 6,3 km/h (2 Bft)
06.06.2014 00:16 11,3 C 8,9 C 87 % 1015,5 hPa 0,0 l/m 0 min 0 min 0,0 UV-I 0 W/m 4,2 km/h (1 Bft)
06.06.2014 00:18 11,3 C 8,9 C 88 % 1015,6 hPa 0,0 l/m 0 min 0 min 0,0 UV-I 0 W/m 2,1 km/h (1 Bft)
06.06.2014 00:20 11,3 C 8,9 C 88 % 1015,6 hPa 0,0 l/m 0 min 0 min 0,0 UV-I 0 W/m 0,0 km/h (0 Bft)
06.06.2014 00:22 11,3 C 8,9 C 88 % 1015,7 hPa 0,0 l/m 0 min 0 min 0,0 UV-I 0 W/m 2,1 km/h (1 Bft)
06.06.2014 00:24 11,3 C 8,9 C 88 % 1015,7 hPa 0,0 l/m 0 min 0 min 0,0 UV-I 0 W/m 6,3 km/h (2 Bft)
06.06.2014 00:26 11,3 C 8,9 C 88 % 1015,7 hPa 0,0 l/m 0 min 0 min 0,0 UV-I 0 W/m 8,4 km/h (2 Bft)
06.06.2014 00:28 11,3 C 8,9 C 88 % 1015,7 hPa 0,0 l/m 0 min 0 min 0,0 UV-I 0 W/m 6,3 km/h (2 Bft)
06.06.2014 00:30 11,4 C 8,9 C 88 % 1015,7 hPa 0,0 l/m 0 min 0 min 0,0 UV-I 0 W/m 2,1 km/h (1 Bft)
06.06.2014 00:32 11,3 C 8,9 C 88 % 1015,7 hPa 0,0 l/m 0 min 0 min 0,0 UV-I 0 W/m 6,3 km/h (2 Bft)
06.06.2014 00:34 11,3 C 8,9 C 88 % 1015,7 hPa 0,0 l/m 0 min 0 min 0,0 UV-I 0 W/m 2,1 km/h (1 Bft)
06.06.2014 00:36 11,3 C 8,9 C 88 % 1015,7 hPa 0,0 l/m 0 min 0 min 0,0 UV-I 0 W/m 2,1 km/h (1 Bft)
06.06.2014 00:38 11,3 C 8,9 C 88 % 1015,8 hPa 0,0 l/m 0 min 0 min 0,0 UV-I 0 W/m 0,0 km/h (0 Bft)
06.06.2014 00:40 11,3 C 8,9 C 88 % 1015,7 hPa 0,0 l/m 0 min 0 min 0,0 UV-I 0 W/m 2,1 km/h (1 Bft)
06.06.2014 00:42 11,2 C 8,9 C 88 % 1015,8 hPa 0,0 l/m 0 min 0 min 0,0 UV-I 0 W/m 8,4 km/h (2 Bft)
06.06.2014 00:44 11,1 C 8,9 C 88 % 1015,8 hPa 0,0 l/m 0 min 0 min 0,0 UV-I 0 W/m 8,4 km/h (2 Bft)
06.06.2014 00:46 11,1 C 8,9 C 88 % 1015,8 hPa 0,0 l/m 0 min 0 min 0,0 UV-I 0 W/m 2,1 km/h (1 Bft)
06.06.2014 00:48 11,1 C 8,9 C 89 % 1015,8 hPa 0,0 l/m 0 min 0 min 0,0 UV-I 0 W/m 6,3 km/h (2 Bft)
06.06.2014 00:50 11,1 C 8,9 C 89 % 1015,8 hPa 0,0 l/m 0 min 0 min 0,0 UV-I 0 W/m 0,0 km/h (0 Bft)
06.06.2014 00:52 11,0 C 8,9 C 89 % 1015,8 hPa 0,0 l/m 0 min 0 min 0,0 UV-I 0 W/m 0,0 km/h (0 Bft)
06.06.2014 00:54 10,9 C 8,9 C 89 % 1015,8 hPa 0,0 l/m 0 min 0 min 0,0 UV-I 0 W/m 0,0 km/h (0 Bft)
06.06.2014 00:56 10,9 C 8,9 C 89 % 1015,9 hPa 0,0 l/m 0 min 0 min 0,0 UV-I 0 W/m 2,1 km/h (1 Bft)
06.06.2014 00:58 10,9 C 8,9 C 90 % 1015,9 hPa 0,0 l/m 0 min 0 min 0,0 UV-I 0 W/m 0,0 km/h (0 Bft)
06.06.2014 01:00 10,9 C 8,9 C 90 % 1015,8 hPa 0,0 l/m 0 min 0 min 0,0 UV-I 0 W/m 2,1 km/h (1 Bft)
06.06.2014 01:02 10,8 C 8,9 C 90 % 1016,0 hPa 0,0 l/m 0 min 0 min 0,0 UV-I 0 W/m 2,1 km/h (1 Bft)
06.06.2014 01:06 10,8 C 8,3 C 90 % 1016,0 hPa 0,0 l/m 0 min 0 min 0,0 UV-I 0 W/m 2,1 km/h (1 Bft)
06.06.2014 01:08 10,8 C 8,3 C 90 % 1015,9 hPa 0,0 l/m 0 min 0 min 0,0 UV-I 0 W/m 4,2 km/h (1 Bft)
06.06.2014 01:10 10,7 C 8,3 C 90 % 1015,9 hPa 0,0 l/m 0 min 0 min 0,0 UV-I 0 W/m 4,2 km/h (1 Bft)
06.06.2014 01:12 10,7 C 8,3 C 90 % 1015,9 hPa 0,0 l/m 0 min 0 min 0,0 UV-I 0 W/m 6,3 km/h (2 Bft)
06.06.2014 01:14 10,7 C 8,9 C 90 % 1016,0 hPa 0,0 l/m 0 min 0 min 0,0 UV-I 0 W/m 8,4 km/h (2 Bft)
06.06.2014 01:16 10,7 C 8,9 C 90 % 1016,0 hPa 0,0 l/m 0 min 0 min 0,0 UV-I 0 W/m 8,4 km/h (2 Bft)
06.06.2014 01:18 10,7 C 8,9 C 90 % 1015,9 hPa 0,0 l/m 0 min 0 min 0,0 UV-I 0 W/m 4,2 km/h (1 Bft)
06.06.2014 01:20 10,8 C 8,9 C 91 % 1015,9 hPa 0,0 l/m 0 min 0 min 0,0 UV-I 0 W/m 4,2 km/h (1 Bft)
06.06.2014 01:22 10,8 C 8,3 C 90 % 1015,8 hPa 0,0 l/m 0 min 0 min 0,0 UV-I 0 W/m 2,1 km/h (1 Bft)
06.06.2014 01:24 10,8 C 8,3 C 90 % 1015,9 hPa 0,0 l/m 0 min 0 min 0,0 UV-I 0 W/m 8,4 km/h (2 Bft)
06.06.2014 01:26 10,8 C 8,9 C 90 % 1015,8 hPa 0,0 l/m 0 min 0 min 0,0 UV-I 0 W/m 8,4 km/h (2 Bft)
06.06.2014 01:28 10,8 C 8,9 C 90 % 1015,9 hPa 0,0 l/m 0 min 0 min 0,0 UV-I 0 W/m 8,4 km/h (2 Bft)
06.06.2014 01:30 10,7 C 8,9 C 90 % 1015,9 hPa 0,0 l/m 0 min 0 min 0,0 UV-I 0 W/m 4,2 km/h (1 Bft)
06.06.2014 01:32 10,8 C 8,9 C 90 % 1015,9 hPa 0,0 l/m 0 min 0 min 0,0 UV-I 0 W/m 2,1 km/h (1 Bft)
06.06.2014 01:34 10,8 C 8,9 C 90 % 1016,0 hPa 0,0 l/m 0 min 0 min 0,0 UV-I 0 W/m 2,1 km/h (1 Bft)
06.06.2014 01:36 10,8 C 8,9 C 90 % 1015,9 hPa 0,0 l/m 0 min 0 min 0,0 UV-I 0 W/m 0,0 km/h (0 Bft)
06.06.2014 01:38 10,7 C 8,3 C 90 % 1016,0 hPa 0,0 l/m 0 min 0 min 0,0 UV-I 0 W/m 0,0 km/h (0 Bft)
06.06.2014 01:40 10,7 C 8,3 C 90 % 1016,0 hPa 0,0 l/m 0 min 0 min 0,0 UV-I 0 W/m 2,1 km/h (1 Bft)
06.06.2014 01:42 10,7 C 8,3 C 90 % 1016,1 hPa 0,0 l/m 0 min 0 min 0,0 UV-I 0 W/m 0,0 km/h (0 Bft)
06.06.2014 01:44 10,6 C 8,3 C 90 % 1016,1 hPa 0,0 l/m 0 min 0 min 0,0 UV-I 0 W/m 4,2 km/h (1 Bft)
06.06.2014 01:46 10,6 C 8,3 C 90 % 1016,2 hPa 0,0 l/m 0 min 0 min 0,0 UV-I 0 W/m 0,0 km/h (0 Bft)
06.06.2014 01:48 10,5 C 8,3 C 90 % 1016,1 hPa 0,0 l/m 0 min 0 min 0,0 UV-I 0 W/m 2,1 km/h (1 Bft)
06.06.2014 01:50 10,5 C 8,3 C 90 % 1016,1 hPa 0,0 l/m 0 min 0 min 0,0 UV-I 0 W/m 6,3 km/h (2 Bft)
06.06.2014 01:52 10,4 C 8,3 C 91 % 1016,2 hPa 0,0 l/m 0 min 0 min 0,0 UV-I 0 W/m 4,2 km/h (1 Bft)
06.06.2014 01:54 10,4 C 8,3 C 91 % 1016,2 hPa 0,0 l/m 0 min 0 min 0,0 UV-I 0 W/m 6,3 km/h (2 Bft)
06.06.2014 01:56 10,4 C 8,3 C 91 % 1016,2 hPa 0,0 l/m 0 min 0 min 0,0 UV-I 0 W/m 10,5 km/h (2 Bft)
06.06.2014 01:58 10,4 C 8,3 C 91 % 1016,1 hPa 0,0 l/m 0 min 0 min 0,0 UV-I 0 W/m 4,2 km/h (1 Bft)
06.06.2014 02:00 10,5 C 8,3 C 91 % 1016,1 hPa 0,0 l/m 0 min 0 min 0,0 UV-I 0 W/m 2,1 km/h (1 Bft)
06.06.2014 02:02 10,6 C 8,3 C 91 % 1016,1 hPa 0,0 l/m 0 min 0 min 0,0 UV-I 0 W/m 2,1 km/h (1 Bft)
06.06.2014 02:06 10,6 C 8,3 C 91 % 1016,1 hPa 0,0 l/m 0 min 0 min 0,0 UV-I 0 W/m 2,1 km/h (1 Bft)
06.06.2014 02:08 10,6 C 8,3 C 91 % 1016,1 hPa 0,0 l/m 0 min 0 min 0,0 UV-I 0 W/m 2,1 km/h (1 Bft)
06.06.2014 02:10 10,5 C 8,3 C 91 % 1016,1 hPa 0,0 l/m 0 min 0 min 0,0 UV-I 0 W/m 0,0 km/h (0 Bft)
06.06.2014 02:12 10,5 C 8,3 C 91 % 1016,1 hPa 0,0 l/m 0 min 0 min 0,0 UV-I 0 W/m 0,0 km/h (0 Bft)
06.06.2014 02:14 10,4 C 8,3 C 91 % 1016,1 hPa 0,0 l/m 0 min 0 min 0,0 UV-I 0 W/m 2,1 km/h (1 Bft)
06.06.2014 02:16 10,4 C 8,3 C 91 % 1016,1 hPa 0,0 l/m 0 min 0 min 0,0 UV-I 0 W/m 2,1 km/h (1 Bft)
06.06.2014 02:18 10,4 C 8,3 C 91 % 1016,1 hPa 0,0 l/m 0 min 0 min 0,0 UV-I 0 W/m 4,2 km/h (1 Bft)
06.06.2014 02:20 10,4 C 8,3 C 91 % 1016,1 hPa 0,0 l/m 0 min 0 min 0,0 UV-I 0 W/m 0,0 km/h (0 Bft)
06.06.2014 02:22 10,3 C 8,3 C 91 % 1016,2 hPa 0,0 l/m 0 min 0 min 0,0 UV-I 0 W/m 4,2 km/h (1 Bft)
06.06.2014 02:24 10,2 C 8,3 C 91 % 1016,1 hPa 0,0 l/m 0 min 0 min 0,0 UV-I 0 W/m 4,2 km/h (1 Bft)
06.06.2014 02:26 10,1 C 8,3 C 91 % 1016,1 hPa 0,0 l/m 0 min 0 min 0,0 UV-I 0 W/m 0,0 km/h (0 Bft)
06.06.2014 02:28 10,1 C 8,3 C 91 % 1016,2 hPa 0,0 l/m 0 min 0 min 0,0 UV-I 0 W/m 2,1 km/h (1 Bft)
06.06.2014 02:30 10,1 C 8,3 C 92 % 1016,2 hPa 0,0 l/m 0 min 0 min 0,0 UV-I 0 W/m 4,2 km/h (1 Bft)
06.06.2014 02:32 10,1 C 7,8 C 92 % 1016,1 hPa 0,0 l/m 0 min 0 min 0,0 UV-I 0 W/m 4,2 km/h (1 Bft)
06.06.2014 02:34 10,1 C 7,8 C 92 % 1016,2 hPa 0,0 l/m 0 min 0 min 0,0 UV-I 0 W/m 6,3 km/h (2 Bft)
06.06.2014 02:36 10,1 C 7,8 C 92 % 1016,2 hPa 0,0 l/m 0 min 0 min 0,0 UV-I 0 W/m 0,0 km/h (0 Bft)
06.06.2014 02:38 10,1 C 7,8 C 92 % 1016,2 hPa 0,0 l/m 0 min 0 min 0,0 UV-I 0 W/m 2,1 km/h (1 Bft)
06.06.2014 02:40 10,0 C 7,8 C 92 % 1016,2 hPa 0,0 l/m 0 min 0 min 0,0 UV-I 0 W/m 0,0 km/h (0 Bft)
06.06.2014 02:42 10,0 C 7,8 C 92 % 1016,1 hPa 0,0 l/m 0 min 0 min 0,0 UV-I 0 W/m 0,0 km/h (0 Bft)
06.06.2014 02:44 10,0 C 7,8 C 92 % 1016,1 hPa 0,0 l/m 0 min 0 min 0,0 UV-I 0 W/m 2,1 km/h (1 Bft)
06.06.2014 02:46 9,9 C 7,8 C 92 % 1016,1 hPa 0,0 l/m 0 min 0 min 0,0 UV-I 0 W/m 2,1 km/h (1 Bft)
06.06.2014 02:48 9,8 C 7,8 C 92 % 1016,1 hPa 0,0 l/m 0 min 0 min 0,0 UV-I 0 W/m 0,0 km/h (0 Bft)
06.06.2014 02:50 9,7 C 7,8 C 92 % 1016,2 hPa 0,0 l/m 0 min 0 min 0,0 UV-I 0 W/m 0,0 km/h (0 Bft)
06.06.2014 02:52 9,6 C 7,8 C 93 % 1016,2 hPa 0,0 l/m 0 min 0 min 0,0 UV-I 0 W/m 0,0 km/h (0 Bft)
06.06.2014 02:54 9,6 C 7,8 C 93 % 1016,2 hPa 0,0 l/m 0 min 0 min 0,0 UV-I 0 W/m 0,0 km/h (0 Bft)
06.06.2014 02:56 9,5 C 7,8 C 93 % 1016,2 hPa 0,0 l/m 0 min 0 min 0,0 UV-I 0 W/m 0,0 km/h (0 Bft)
06.06.2014 02:58 9,4 C 7,8 C 93 % 1016,2 hPa 0,0 l/m 0 min 0 min 0,0 UV-I 0 W/m 0,0 km/h (0 Bft)
06.06.2014 03:00 9,4 C 7,8 C 93 % 1016,2 hPa 0,0 l/m 0 min 0 min 0,0 UV-I 0 W/m 0,0 km/h (0 Bft)
06.06.2014 03:02 9,4 C 7,8 C 93 % 1016,2 hPa 0,0 l/m 0 min 0 min 0,0 UV-I 0 W/m 0,0 km/h (0 Bft)
06.06.2014 03:06 9,3 C 7,8 C 93 % 1016,2 hPa 0,0 l/m 0 min 0 min 0,0 UV-I 0 W/m 0,0 km/h (0 Bft)
06.06.2014 03:08 9,2 C 7,8 C 94 % 1016,2 hPa 0,0 l/m 0 min 0 min 0,0 UV-I 0 W/m 0,0 km/h (0 Bft)
06.06.2014 03:10 9,2 C 7,8 C 94 % 1016,2 hPa 0,0 l/m 0 min 0 min 0,0 UV-I 0 W/m 0,0 km/h (0 Bft)
06.06.2014 03:12 9,2 C 7,2 C 94 % 1016,3 hPa 0,0 l/m 0 min 0 min 0,0 UV-I 0 W/m 0,0 km/h (0 Bft)
06.06.2014 03:14 9,2 C 7,8 C 94 % 1016,3 hPa 0,0 l/m 0 min 0 min 0,0 UV-I 0 W/m 8,4 km/h (2 Bft)
06.06.2014 03:16 9,1 C 7,8 C 94 % 1016,3 hPa 0,0 l/m 0 min 0 min 0,0 UV-I 0 W/m 6,3 km/h (2 Bft)
06.06.2014 03:18 9,1 C 7,8 C 94 % 1016,3 hPa 0,0 l/m 0 min 0 min 0,0 UV-I 0 W/m 4,2 km/h (1 Bft)
06.06.2014 03:20 9,1 C 7,8 C 94 % 1016,3 hPa 0,0 l/m 0 min 0 min 0,0 UV-I 0 W/m 6,3 km/h (2 Bft)
06.06.2014 03:22 9,1 C 7,8 C 94 % 1016,3 hPa 0,0 l/m 0 min 0 min 0,0 UV-I 0 W/m 0,0 km/h (0 Bft)
06.06.2014 03:24 9,1 C 7,8 C 94 % 1016,3 hPa 0,0 l/m 0 min 0 min 0,0 UV-I 0 W/m 2,1 km/h (1 Bft)
06.06.2014 03:26 9,1 C 7,8 C 94 % 1016,3 hPa 0,0 l/m 0 min 0 min 0,0 UV-I 0 W/m 0,0 km/h (0 Bft)
06.06.2014 03:28 9,2 C 7,8 C 94 % 1016,3 hPa 0,0 l/m 0 min 0 min 0,0 UV-I 0 W/m 0,0 km/h (0 Bft)
06.06.2014 03:30 9,2 C 7,8 C 94 % 1016,4 hPa 0,0 l/m 0 min 0 min 0,0 UV-I 0 W/m 0,0 km/h (0 Bft)
06.06.2014 03:32 9,2 C 7,8 C 94 % 1016,4 hPa 0,0 l/m 0 min 0 min 0,0 UV-I 0 W/m 0,0 km/h (0 Bft)
06.06.2014 03:34 9,2 C 7,8 C 94 % 1016,3 hPa 0,0 l/m 0 min 0 min 0,0 UV-I 0 W/m 0,0 km/h (0 Bft)
06.06.2014 03:36 9,2 C 7,2 C 94 % 1016,3 hPa 0,0 l/m 0 min 0 min 0,0 UV-I 0 W/m 0,0 km/h (0 Bft)
06.06.2014 03:38 9,1 C 7,2 C 94 % 1016,3 hPa 0,0 l/m 0 min 0 min 0,0 UV-I 0 W/m 0,0 km/h (0 Bft)
06.06.2014 03:40 9,0 C 7,2 C 94 % 1016,4 hPa 0,0 l/m 0 min 0 min 0,0 UV-I 0 W/m 0,0 km/h (0 Bft)
06.06.2014 03:42 8,9 C 7,2 C 94 % 1016,4 hPa 0,0 l/m 0 min 0 min 0,0 UV-I 0 W/m 0,0 km/h (0 Bft)
06.06.2014 03:44 8,9 C 7,2 C 94 % 1016,3 hPa 0,0 l/m 0 min 0 min 0,0 UV-I 0 W/m 0,0 km/h (0 Bft)
06.06.2014 03:46 8,8 C 7,2 C 94 % 1016,3 hPa 0,0 l/m 0 min 0 min 0,0 UV-I 0 W/m 0,0 km/h (0 Bft)
06.06.2014 03:48 8,7 C 7,2 C 94 % 1016,3 hPa 0,0 l/m 0 min 0 min 0,0 UV-I 0 W/m 0,0 km/h (0 Bft)
06.06.2014 03:50 8,7 C 7,2 C 94 % 1016,3 hPa 0,0 l/m 0 min 0 min 0,0 UV-I 0 W/m 0,0 km/h (0 Bft)
06.06.2014 03:52 8,7 C 7,2 C 94 % 1016,3 hPa 0,0 l/m 0 min 0 min 0,0 UV-I 0 W/m 0,0 km/h (0 Bft)
06.06.2014 03:54 8,6 C 7,2 C 95 % 1016,3 hPa 0,0 l/m 0 min 0 min 0,0 UV-I 0 W/m 0,0 km/h (0 Bft)
06.06.2014 03:56 8,6 C 7,2 C 95 % 1016,3 hPa 0,0 l/m 0 min 0 min 0,0 UV-I 0 W/m 0,0 km/h (0 Bft)
06.06.2014 03:58 8,6 C 7,2 C 95 % 1016,3 hPa 0,0 l/m 0 min 0 min 0,0 UV-I 0 W/m 0,0 km/h (0 Bft)
06.06.2014 04:00 8,6 C 7,2 C 95 % 1016,4 hPa 0,0 l/m 0 min 0 min 0,0 UV-I 0 W/m 0,0 km/h (0 Bft)
06.06.2014 04:05 8,5 C 6,7 C 95 % 1016,4 hPa 0,0 l/m 0 min 0 min 0,0 UV-I 0 W/m 0,0 km/h (0 Bft)
06.06.2014 04:06 8,5 C 6,7 C 95 % 1016,5 hPa 0,0 l/m 0 min 0 min 0,0 UV-I 0 W/m 0,0 km/h (0 Bft)
06.06.2014 04:08 8,4 C 6,7 C 95 % 1016,5 hPa 0,0 l/m 0 min 0 min 0,0 UV-I 0 W/m 0,0 km/h (0 Bft)
06.06.2014 04:10 8,5 C 6,7 C 95 % 1016,5 hPa 0,0 l/m 0 min 0 min 0,0 UV-I 0 W/m 0,0 km/h (0 Bft)
06.06.2014 04:12 8,5 C 6,7 C 95 % 1016,5 hPa 0,0 l/m 0 min 0 min 0,0 UV-I 0 W/m 0,0 km/h (0 Bft)
06.06.2014 04:14 8,5 C 6,7 C 95 % 1016,5 hPa 0,0 l/m 0 min 0 min 0,0 UV-I 0 W/m 0,0 km/h (0 Bft)
06.06.2014 04:16 8,4 C 6,7 C 95 % 1016,5 hPa 0,0 l/m 0 min 0 min 0,0 UV-I 0 W/m 0,0 km/h (0 Bft)
06.06.2014 04:18 8,4 C 6,7 C 95 % 1016,5 hPa 0,0 l/m 0 min 0 min 0,0 UV-I 0 W/m 0,0 km/h (0 Bft)
06.06.2014 04:20 8,4 C 6,7 C 95 % 1016,4 hPa 0,0 l/m 0 min 0 min 0,0 UV-I 0 W/m 0,0 km/h (0 Bft)
06.06.2014 04:22 8,4 C 6,7 C 95 % 1016,3 hPa 0,0 l/m 0 min 0 min 0,0 UV-I 0 W/m 0,0 km/h (0 Bft)
06.06.2014 04:24 8,4 C 6,7 C 95 % 1016,4 hPa 0,0 l/m 0 min 0 min 0,0 UV-I 0 W/m 0,0 km/h (0 Bft)
06.06.2014 04:26 8,4 C 6,7 C 95 % 1016,4 hPa 0,0 l/m 0 min 0 min 0,0 UV-I 0 W/m 0,0 km/h (0 Bft)
06.06.2014 04:28 8,4 C 6,7 C 95 % 1016,4 hPa 0,0 l/m 0 min 0 min 0,0 UV-I 0 W/m 0,0 km/h (0 Bft)
06.06.2014 04:30 8,4 C 6,7 C 95 % 1016,4 hPa 0,0 l/m 0 min 0 min 0,0 UV-I 0 W/m 0,0 km/h (0 Bft)
06.06.2014 04:32 8,3 C 6,7 C 95 % 1016,4 hPa 0,0 l/m 0 min 0 min 0,0 UV-I 0 W/m 0,0 km/h (0 Bft)
06.06.2014 04:34 8,3 C 6,7 C 96 % 1016,4 hPa 0,0 l/m 0 min 0 min 0,0 UV-I 0 W/m 0,0 km/h (0 Bft)
06.06.2014 04:36 8,3 C 6,7 C 96 % 1016,4 hPa 0,0 l/m 0 min 0 min 0,0 UV-I 0 W/m 0,0 km/h (0 Bft)
06.06.2014 04:38 8,3 C 6,7 C 96 % 1016,4 hPa 0,0 l/m 0 min 0 min 0,0 UV-I 0 W/m 0,0 km/h (0 Bft)
06.06.2014 04:40 8,4 C 6,7 C 96 % 1016,5 hPa 0,0 l/m 0 min 0 min 0,0 UV-I 0 W/m 0,0 km/h (0 Bft)
06.06.2014 04:42 8,3 C 6,7 C 96 % 1016,5 hPa 0,0 l/m 0 min 0 min 0,0 UV-I 0 W/m 0,0 km/h (0 Bft)
06.06.2014 04:44 8,3 C 6,7 C 95 % 1016,5 hPa 0,0 l/m 0 min 0 min 0,0 UV-I 0 W/m 0,0 km/h (0 Bft)
06.06.2014 04:46 8,3 C 6,7 C 95 % 1016,5 hPa 0,0 l/m 0 min 0 min 0,0 UV-I 0 W/m 0,0 km/h (0 Bft)
06.06.2014 04:48 8,3 C 6,7 C 96 % 1016,5 hPa 0,0 l/m 0 min 0 min 0,0 UV-I 0 W/m 0,0 km/h (0 Bft)
06.06.2014 04:50 8,2 C 6,7 C 96 % 1016,6 hPa 0,0 l/m 0 min 0 min 0,0 UV-I 0 W/m 0,0 km/h (0 Bft)
06.06.2014 04:52 8,2 C 6,7 C 96 % 1016,5 hPa 0,0 l/m 0 min 0 min 0,0 UV-I 0 W/m 0,0 km/h (0 Bft)
06.06.2014 04:54 8,2 C 6,7 C 96 % 1016,5 hPa 0,0 l/m 0 min 0 min 0,0 UV-I 0 W/m 0,0 km/h (0 Bft)
06.06.2014 04:56 8,1 C 6,7 C 96 % 1016,5 hPa 0,0 l/m 0 min 0 min 0,0 UV-I 0 W/m 0,0 km/h (0 Bft)
06.06.2014 04:58 8,1 C 6,7 C 96 % 1016,5 hPa 0,0 l/m 0 min 0 min 0,0 UV-I 0 W/m 0,0 km/h (0 Bft)
06.06.2014 05:00 8,0 C 6,7 C 96 % 1016,6 hPa 0,0 l/m 0 min 0 min 0,0 UV-I 0 W/m 0,0 km/h (0 Bft)
06.06.2014 05:02 8,0 C 6,7 C 96 % 1016,6 hPa 0,0 l/m 0 min 0 min 0,0 UV-I 0 W/m 0,0 km/h (0 Bft)
06.06.2014 05:06 8,0 C 6,7 C 96 % 1016,6 hPa 0,0 l/m 0 min 0 min 0,0 UV-I 0 W/m 2,1 km/h (1 Bft)
06.06.2014 05:08 7,9 C 6,7 C 96 % 1016,6 hPa 0,0 l/m 0 min 0 min 0,0 UV-I 0 W/m 0,0 km/h (0 Bft)
06.06.2014 05:10 7,9 C 6,7 C 96 % 1016,6 hPa 0,0 l/m 0 min 0 min 0,0 UV-I 0 W/m 0,0 km/h (0 Bft)
06.06.2014 05:12 7,9 C 6,7 C 96 % 1016,7 hPa 0,0 l/m 0 min 0 min 0,0 UV-I 0 W/m 0,0 km/h (0 Bft)
06.06.2014 05:14 7,9 C 6,7 C 96 % 1016,7 hPa 0,0 l/m 0 min 0 min 0,0 UV-I 0 W/m 0,0 km/h (0 Bft)
06.06.2014 05:16 7,9 C 6,7 C 96 % 1016,6 hPa 0,0 l/m 0 min 0 min 0,0 UV-I 5 W/m 0,0 km/h (0 Bft)
06.06.2014 05:18 7,9 C 6,7 C 96 % 1016,6 hPa 0,0 l/m 0 min 0 min 0,0 UV-I 5 W/m 0,0 km/h (0 Bft)
06.06.2014 05:20 7,9 C 6,7 C 96 % 1016,7 hPa 0,0 l/m 0 min 0 min 0,0 UV-I 5 W/m 0,0 km/h (0 Bft)
06.06.2014 05:22 7,9 C 6,7 C 96 % 1016,7 hPa 0,0 l/m 0 min 0 min 0,0 UV-I 5 W/m 0,0 km/h (0 Bft)
06.06.2014 05:24 7,8 C 6,7 C 96 % 1016,7 hPa 0,0 l/m 0 min 0 min 0,0 UV-I 7 W/m 2,1 km/h (1 Bft)
06.06.2014 05:26 7,8 C 6,7 C 96 % 1016,7 hPa 0,0 l/m 0 min 0 min 0,0 UV-I 7 W/m 0,0 km/h (0 Bft)
06.06.2014 05:28 7,8 C 6,7 C 96 % 1016,7 hPa 0,0 l/m 0 min 0 min 0,0 UV-I 7 W/m 0,0 km/h (0 Bft)
06.06.2014 05:30 7,8 C 6,7 C 96 % 1016,7 hPa 0,0 l/m 0 min 0 min 0,0 UV-I 9 W/m 0,0 km/h (0 Bft)
06.06.2014 05:32 7,8 C 6,7 C 96 % 1016,7 hPa 0,0 l/m 0 min 0 min 0,0 UV-I 9 W/m 0,0 km/h (0 Bft)
06.06.2014 05:34 7,8 C 6,7 C 96 % 1016,8 hPa 0,0 l/m 0 min 0 min 0,0 UV-I 11 W/m 2,1 km/h (1 Bft)
06.06.2014 05:36 7,8 C 6,7 C 96 % 1016,7 hPa 0,0 l/m 0 min 0 min 0,0 UV-I 11 W/m 2,1 km/h (1 Bft)
06.06.2014 05:38 7,8 C 6,7 C 96 % 1016,7 hPa 0,0 l/m 0 min 0 min 0,0 UV-I 12 W/m 4,2 km/h (1 Bft)
06.06.2014 05:40 7,8 C 6,7 C 96 % 1016,7 hPa 0,0 l/m 0 min 0 min 0,0 UV-I 12 W/m 0,0 km/h (0 Bft)
06.06.2014 05:42 7,9 C 6,7 C 96 % 1016,8 hPa 0,0 l/m 0 min 0 min 0,0 UV-I 14 W/m 0,0 km/h (0 Bft)
06.06.2014 05:44 7,9 C 6,7 C 96 % 1016,8 hPa 0,0 l/m 0 min 0 min 0,0 UV-I 14 W/m 2,1 km/h (1 Bft)
06.06.2014 05:46 7,9 C 6,7 C 96 % 1016,8 hPa 0,0 l/m 0 min 0 min 0,0 UV-I 16 W/m 0,0 km/h (0 Bft)
06.06.2014 05:48 7,9 C 6,7 C 96 % 1016,8 hPa 0,0 l/m 0 min 0 min 0,0 UV-I 16 W/m 0,0 km/h (0 Bft)
06.06.2014 05:50 7,9 C 6,7 C 96 % 1016,8 hPa 0,0 l/m 0 min 0 min 0,0 UV-I 18 W/m 0,0 km/h (0 Bft)
06.06.2014 05:52 7,9 C 6,7 C 96 % 1016,9 hPa 0,0 l/m 0 min 0 min 0,0 UV-I 18 W/m 6,3 km/h (2 Bft)
06.06.2014 05:54 7,9 C 6,7 C 96 % 1016,8 hPa 0,0 l/m 0 min 0 min 0,0 UV-I 19 W/m 2,1 km/h (1 Bft)
06.06.2014 05:56 7,9 C 6,7 C 97 % 1016,8 hPa 0,0 l/m 0 min 0 min 0,0 UV-I 19 W/m 6,3 km/h (2 Bft)
06.06.2014 05:58 7,9 C 6,7 C 97 % 1016,8 hPa 0,0 l/m 0 min 0 min 0,0 UV-I 21 W/m 4,2 km/h (1 Bft)
06.06.2014 06:00 7,9 C 6,7 C 97 % 1016,8 hPa 0,0 l/m 0 min 0 min 0,0 UV-I 21 W/m 0,0 km/h (0 Bft)
06.06.2014 06:02 7,9 C 6,7 C 97 % 1016,8 hPa 0,0 l/m 0 min 0 min 0,0 UV-I 23 W/m 0,0 km/h (0 Bft)
06.06.2014 06:06 7,9 C 6,7 C 97 % 1016,8 hPa 0,0 l/m 0 min 0 min 0,0 UV-I 26 W/m 4,2 km/h (1 Bft)
06.06.2014 06:08 7,9 C 7,2 C 97 % 1016,9 hPa 0,0 l/m 0 min 0 min 0,0 UV-I 28 W/m 6,3 km/h (2 Bft)
06.06.2014 06:10 7,9 C 7,2 C 97 % 1016,9 hPa 0,0 l/m 0 min 0 min 0,0 UV-I 32 W/m 6,3 km/h (2 Bft)
06.06.2014 06:12 7,9 C 7,2 C 97 % 1016,9 hPa 0,0 l/m 0 min 0 min 0,0 UV-I 35 W/m 2,1 km/h (1 Bft)
06.06.2014 06:14 7,9 C 7,2 C 97 % 1016,9 hPa 0,0 l/m 0 min 0 min 0,0 UV-I 39 W/m 0,0 km/h (0 Bft)
06.06.2014 06:16 8,0 C 7,2 C 97 % 1017,0 hPa 0,0 l/m 0 min 0 min 0,0 UV-I 40 W/m 0,0 km/h (0 Bft)
06.06.2014 06:18 8,0 C 7,2 C 96 % 1017,0 hPa 0,0 l/m 0 min 0 min 0,0 UV-I 44 W/m 0,0 km/h (0 Bft)
06.06.2014 06:20 8,1 C 7,2 C 96 % 1017,0 hPa 0,0 l/m 0 min 0 min 0,0 UV-I 47 W/m 8,4 km/h (2 Bft)
06.06.2014 06:22 8,1 C 7,2 C 96 % 1017,0 hPa 0,0 l/m 0 min 0 min 0,0 UV-I 49 W/m 0,0 km/h (0 Bft)
06.06.2014 06:24 8,1 C 7,2 C 96 % 1017,0 hPa 0,0 l/m 0 min 0 min 0,0 UV-I 53 W/m 6,3 km/h (2 Bft)
06.06.2014 06:26 8,2 C 7,2 C 96 % 1017,0 hPa 0,0 l/m 0 min 0 min 0,0 UV-I 54 W/m 0,0 km/h (0 Bft)
06.06.2014 06:28 8,2 C 7,2 C 100 % 1016,9 hPa 0,0 l/m 0 min 0 min 0,0 UV-I 58 W/m 2,1 km/h (1 Bft)
06.06.2014 06:30 8,2 C 7,2 C 97 % 1017,0 hPa 0,0 l/m 0 min 0 min 0,0 UV-I 62 W/m 8,4 km/h (2 Bft)
06.06.2014 06:32 8,2 C 7,2 C 97 % 1016,9 hPa 0,0 l/m 0 min 0 min 0,0 UV-I 65 W/m 6,3 km/h (2 Bft)
06.06.2014 06:34 8,3 C 7,2 C 96 % 1017,0 hPa 0,0 l/m 0 min 0 min 0,0 UV-I 65 W/m 6,3 km/h (2 Bft)
06.06.2014 06:36 8,3 C 7,2 C 96 % 1016,9 hPa 0,0 l/m 0 min 0 min 0,0 UV-I 70 W/m 6,3 km/h (2 Bft)
06.06.2014 06:38 8,3 C 7,2 C 96 % 1016,9 hPa 0,0 l/m 0 min 0 min 0,0 UV-I 74 W/m 8,4 km/h (2 Bft)
06.06.2014 06:40 8,4 C 7,2 C 96 % 1016,9 hPa 0,0 l/m 0 min 0 min 0,0 UV-I 77 W/m 6,3 km/h (2 Bft)
06.06.2014 06:42 8,4 C 7,2 C 96 % 1016,9 hPa 0,0 l/m 0 min 0 min 0,0 UV-I 77 W/m 2,1 km/h (1 Bft)
06.06.2014 06:44 8,4 C 7,2 C 96 % 1017,0 hPa 0,0 l/m 0 min 0 min 0,0 UV-I 84 W/m 0,0 km/h (0 Bft)
06.06.2014 06:46 8,5 C 7,2 C 96 % 1017,0 hPa 0,0 l/m 0 min 0 min 0,0 UV-I 88 W/m 4,2 km/h (1 Bft)
06.06.2014 06:48 8,5 C 7,8 C 96 % 1017,0 hPa 0,0 l/m 0 min 0 min 0,0 UV-I 91 W/m 8,4 km/h (2 Bft)
06.06.2014 06:50 8,6 C 7,8 C 96 % 1016,9 hPa 0,0 l/m 0 min 0 min 0,0 UV-I 97 W/m 6,3 km/h (2 Bft)
06.06.2014 06:52 8,7 C 7,8 C 96 % 1017,0 hPa 0,0 l/m 0 min 0 min 0,0 UV-I 97 W/m 8,4 km/h (2 Bft)
06.06.2014 06:54 8,7 C 7,8 C 96 % 1017,0 hPa 0,0 l/m 0 min 0 min 0,0 UV-I 105 W/m 10,5 km/h (2 Bft)
06.06.2014 06:56 8,7 C 7,8 C 96 % 1017,0 hPa 0,0 l/m 0 min 0 min 0,0 UV-I 111 W/m 10,5 km/h (2 Bft)
06.06.2014 06:58 8,8 C 7,8 C 96 % 1017,0 hPa 0,0 l/m 0 min 0 min 0,0 UV-I 114 W/m 10,5 km/h (2 Bft)
06.06.2014 07:00 8,8 C 7,8 C 96 % 1017,0 hPa 0,0 l/m 2 min 0 min 0,0 UV-I 120 W/m 6,3 km/h (2 Bft)
06.06.2014 07:02 8,9 C 7,8 C 95 % 1017,0 hPa 0,0 l/m 2 min 0 min 0,0 UV-I 127 W/m 10,5 km/h (2 Bft)
06.06.2014 07:06 9,0 C 7,8 C 95 % 1017,0 hPa 0,0 l/m 2 min 0 min 0,0 UV-I 135 W/m 10,5 km/h (2 Bft)
06.06.2014 07:08 9,1 C 7,8 C 95 % 1017,0 hPa 0,0 l/m 2 min 0 min 0,0 UV-I 142 W/m 10,5 km/h (2 Bft)
06.06.2014 07:10 9,1 C 7,8 C 95 % 1017,0 hPa 0,0 l/m 2 min 0 min 0,0 UV-I 148 W/m 12,6 km/h (3 Bft)
06.06.2014 07:12 9,2 C 8,3 C 95 % 1017,0 hPa 0,0 l/m 2 min 0 min 0,0 UV-I 151 W/m 12,6 km/h (3 Bft)
06.06.2014 07:14 9,2 C 8,3 C 94 % 1016,9 hPa 0,0 l/m 2 min 0 min 0,0 UV-I 158 W/m 2,1 km/h (1 Bft)
06.06.2014 07:16 9,3 C 8,3 C 94 % 1017,0 hPa 0,0 l/m 2 min 0 min 0,0 UV-I 163 W/m 8,4 km/h (2 Bft)
06.06.2014 07:18 9,3 C 8,3 C 94 % 1016,9 hPa 0,0 l/m 2 min 0 min 0,0 UV-I 169 W/m 10,5 km/h (2 Bft)
06.06.2014 07:20 9,4 C 8,3 C 94 % 1016,9 hPa 0,0 l/m 2 min 0 min 0,0 UV-I 176 W/m 10,5 km/h (2 Bft)
06.06.2014 07:22 9,4 C 8,3 C 94 % 1017,0 hPa 0,0 l/m 2 min 0 min 0,0 UV-I 181 W/m 10,5 km/h (2 Bft)
06.06.2014 07:24 9,5 C 8,3 C 93 % 1017,0 hPa 0,0 l/m 2 min 0 min 0,0 UV-I 186 W/m 10,5 km/h (2 Bft)
06.06.2014 07:26 9,6 C 8,3 C 93 % 1017,0 hPa 0,0 l/m 2 min 0 min 0,0 UV-I 195 W/m 8,4 km/h (2 Bft)
06.06.2014 07:28 9,7 C 8,3 C 93 % 1017,0 hPa 0,0 l/m 2 min 0 min 0,0 UV-I 199 W/m 8,4 km/h (2 Bft)
06.06.2014 07:30 9,7 C 8,3 C 93 % 1017,0 hPa 0,0 l/m 2 min 0 min 0,0 UV-I 202 W/m 8,4 km/h (2 Bft)
06.06.2014 07:32 9,8 C 8,9 C 93 % 1017,0 hPa 0,0 l/m 2 min 0 min 0,0 UV-I 211 W/m 6,3 km/h (2 Bft)
06.06.2014 07:34 9,9 C 8,9 C 92 % 1017,0 hPa 0,0 l/m 2 min 0 min 0,0 UV-I 216 W/m 8,4 km/h (2 Bft)
06.06.2014 07:36 9,9 C 8,9 C 93 % 1017,0 hPa 0,0 l/m 2 min 0 min 0,0 UV-I 220 W/m 6,3 km/h (2 Bft)
06.06.2014 07:38 10,0 C 8,9 C 92 % 1017,0 hPa 0,0 l/m 2 min 0 min 0,0 UV-I 227 W/m 8,4 km/h (2 Bft)
06.06.2014 07:40 10,1 C 8,9 C 92 % 1017,0 hPa 0,0 l/m 2 min 0 min 0,0 UV-I 232 W/m 8,4 km/h (2 Bft)
06.06.2014 07:42 10,2 C 8,9 C 92 % 1017,0 hPa 0,0 l/m 2 min 0 min 0,0 UV-I 237 W/m 8,4 km/h (2 Bft)
06.06.2014 07:44 10,3 C 8,9 C 92 % 1017,1 hPa 0,0 l/m 2 min 0 min 0,0 UV-I 243 W/m 8,4 km/h (2 Bft)
06.06.2014 07:46 10,4 C 8,9 C 92 % 1017,0 hPa 0,0 l/m 2 min 0 min 0,0 UV-I 248 W/m 6,3 km/h (2 Bft)
06.06.2014 07:48 10,5 C 9,4 C 91 % 1017,0 hPa 0,0 l/m 2 min 0 min 0,0 UV-I 253 W/m 6,3 km/h (2 Bft)
06.06.2014 07:50 10,6 C 9,4 C 91 % 1017,1 hPa 0,0 l/m 2 min 0 min 0,0 UV-I 258 W/m 2,1 km/h (1 Bft)
06.06.2014 07:52 10,7 C 9,4 C 91 % 1017,0 hPa 0,0 l/m 2 min 0 min 0,0 UV-I 262 W/m 8,4 km/h (2 Bft)
06.06.2014 07:54 10,8 C 9,4 C 91 % 1017,1 hPa 0,0 l/m 2 min 0 min 0,0 UV-I 269 W/m 8,4 km/h (2 Bft)
06.06.2014 07:56 10,9 C 9,4 C 91 % 1017,0 hPa 0,0 l/m 2 min 0 min 0,0 UV-I 272 W/m 2,1 km/h (1 Bft)
06.06.2014 07:58 11,0 C 9,4 C 90 % 1017,0 hPa 0,0 l/m 2 min 0 min 0,0 UV-I 278 W/m 12,6 km/h (3 Bft)
06.06.2014 08:00 11,1 C 9,4 C 90 % 1017,1 hPa 0,0 l/m 2 min 0 min 0,0 UV-I 285 W/m 10,5 km/h (2 Bft)
06.06.2014 08:02 11,2 C 9,4 C 89 % 1017,1 hPa 0,0 l/m 2 min 0 min 0,0 UV-I 288 W/m 8,4 km/h (2 Bft)
06.06.2014 08:06 11,3 C 10,0 C 88 % 1017,1 hPa 0,0 l/m 2 min 0 min 0,0 UV-I 301 W/m 12,6 km/h (3 Bft)
06.06.2014 08:08 11,4 C 10,0 C 88 % 1017,1 hPa 0,0 l/m 2 min 0 min 0,0 UV-I 304 W/m 14,6 km/h (3 Bft)
06.06.2014 08:10 11,5 C 10,0 C 87 % 1017,0 hPa 0,0 l/m 2 min 0 min 0,0 UV-I 309 W/m 14,6 km/h (3 Bft)
06.06.2014 08:12 11,6 C 10,0 C 87 % 1017,1 hPa 0,0 l/m 2 min 0 min 0,0 UV-I 315 W/m 14,6 km/h (3 Bft)
06.06.2014 08:14 11,7 C 10,0 C 87 % 1017,1 hPa 0,0 l/m 2 min 0 min 0,0 UV-I 320 W/m 14,6 km/h (3 Bft)
06.06.2014 08:16 11,7 C 10,0 C 87 % 1017,1 hPa 0,0 l/m 2 min 0 min 0,0 UV-I 323 W/m 14,6 km/h (3 Bft)
06.06.2014 08:18 11,9 C 10,0 C 87 % 1017,1 hPa 0,0 l/m 2 min 0 min 0,0 UV-I 330 W/m 12,6 km/h (3 Bft)
06.06.2014 08:20 12,0 C 10,6 C 86 % 1017,1 hPa 0,0 l/m 2 min 0 min 0,0 UV-I 334 W/m 14,6 km/h (3 Bft)
06.06.2014 08:22 12,1 C 10,6 C 86 % 1017,1 hPa 0,0 l/m 2 min 0 min 0,0 UV-I 339 W/m 14,6 km/h (3 Bft)
06.06.2014 08:24 12,2 C 10,6 C 86 % 1017,1 hPa 0,0 l/m 2 min 0 min 0,0 UV-I 345 W/m 12,6 km/h (3 Bft)
06.06.2014 08:26 12,3 C 10,6 C 86 % 1017,1 hPa 0,0 l/m 2 min 0 min 0,0 UV-I 350 W/m 14,6 km/h (3 Bft)
06.06.2014 08:28 12,4 C 10,6 C 85 % 1017,1 hPa 0,0 l/m 2 min 0 min 0,0 UV-I 353 W/m 14,6 km/h (3 Bft)
06.06.2014 08:30 12,5 C 10,6 C 85 % 1017,1 hPa 0,0 l/m 2 min 0 min 0,0 UV-I 360 W/m 14,6 km/h (3 Bft)
06.06.2014 08:32 12,6 C 10,6 C 85 % 1017,2 hPa 0,0 l/m 2 min 0 min 0,0 UV-I 366 W/m 14,6 km/h (3 Bft)
06.06.2014 08:34 12,7 C 11,1 C 85 % 1017,1 hPa 0,0 l/m 2 min 0 min 0,0 UV-I 369 W/m 8,4 km/h (2 Bft)
06.06.2014 08:36 12,9 C 11,1 C 84 % 1017,1 hPa 0,0 l/m 2 min 0 min 0,0 UV-I 376 W/m 12,6 km/h (3 Bft)
06.06.2014 08:38 13,0 C 11,1 C 83 % 1017,1 hPa 0,0 l/m 2 min 0 min 0,0 UV-I 380 W/m 12,6 km/h (3 Bft)
06.06.2014 08:40 13,2 C 11,1 C 83 % 1017,1 hPa 0,0 l/m 2 min 0 min 0,0 UV-I 385 W/m 12,6 km/h (3 Bft)
06.06.2014 08:42 13,4 C 11,1 C 83 % 1017,1 hPa 0,0 l/m 2 min 0 min 0,0 UV-I 392 W/m 6,3 km/h (2 Bft)
06.06.2014 08:44 13,6 C 11,7 C 82 % 1017,1 hPa 0,0 l/m 2 min 0 min 0,0 UV-I 397 W/m 10,5 km/h (2 Bft)
06.06.2014 08:46 13,8 C 11,7 C 82 % 1017,1 hPa 0,0 l/m 2 min 0 min 0,0 UV-I 401 W/m 8,4 km/h (2 Bft)
06.06.2014 08:48 13,9 C 11,7 C 82 % 1017,1 hPa 0,0 l/m 2 min 0 min 0,0 UV-I 408 W/m 6,3 km/h (2 Bft)
06.06.2014 08:50 14,1 C 11,7 C 82 % 1017,2 hPa 0,0 l/m 2 min 0 min 0,0 UV-I 411 W/m 8,4 km/h (2 Bft)
06.06.2014 08:52 14,2 C 11,7 C 81 % 1017,1 hPa 0,0 l/m 2 min 0 min 0,0 UV-I 417 W/m 12,6 km/h (3 Bft)
06.06.2014 08:54 14,3 C 11,7 C 81 % 1017,1 hPa 0,0 l/m 2 min 0 min 0,0 UV-I 424 W/m 14,6 km/h (3 Bft)
06.06.2014 08:56 14,5 C 12,2 C 81 % 1017,2 hPa 0,0 l/m 2 min 0 min 0,0 UV-I 427 W/m 6,3 km/h (2 Bft)
06.06.2014 08:58 14,6 C 12,2 C 81 % 1017,2 hPa 0,0 l/m 2 min 0 min 0,0 UV-I 431 W/m 12,6 km/h (3 Bft)
06.06.2014 09:00 14,8 C 12,2 C 81 % 1017,2 hPa 0,0 l/m 2 min 0 min 0,0 UV-I 438 W/m 6,3 km/h (2 Bft)
06.06.2014 09:02 14,9 C 12,2 C 81 % 1017,2 hPa 0,0 l/m 2 min 0 min 0,0 UV-I 441 W/m 10,5 km/h (2 Bft)
06.06.2014 09:06 15,1 C 12,2 C 80 % 1017,1 hPa 0,0 l/m 2 min 0 min 0,0 UV-I 452 W/m 10,5 km/h (2 Bft)
06.06.2014 09:08 15,3 C 12,8 C 78 % 1017,2 hPa 0,0 l/m 2 min 0 min 0,0 UV-I 457 W/m 10,5 km/h (2 Bft)
06.06.2014 09:10 15,3 C 12,8 C 79 % 1017,2 hPa 0,0 l/m 2 min 0 min 0,0 UV-I 464 W/m 10,5 km/h (2 Bft)
06.06.2014 09:12 15,4 C 12,8 C 79 % 1017,2 hPa 0,0 l/m 2 min 0 min 0,0 UV-I 469 W/m 6,3 km/h (2 Bft)
06.06.2014 09:14 15,6 C 12,8 C 78 % 1017,2 hPa 0,0 l/m 2 min 0 min 0,0 UV-I 471 W/m 10,5 km/h (2 Bft)
06.06.2014 09:16 15,7 C 12,8 C 78 % 1017,2 hPa 0,0 l/m 2 min 0 min 0,0 UV-I 476 W/m 6,3 km/h (2 Bft)
06.06.2014 09:18 15,9 C 12,8 C 78 % 1017,2 hPa 0,0 l/m 2 min 0 min 0,0 UV-I 482 W/m 12,6 km/h (3 Bft)
06.06.2014 09:20 16,0 C 13,3 C 78 % 1017,2 hPa 0,0 l/m 2 min 0 min 0,0 UV-I 487 W/m 12,6 km/h (3 Bft)
06.06.2014 09:22 16,2 C 13,3 C 78 % 1017,2 hPa 0,0 l/m 2 min 0 min 0,0 UV-I 494 W/m 8,4 km/h (2 Bft)
06.06.2014 09:24 16,3 C 13,3 C 77 % 1017,2 hPa 0,0 l/m 2 min 0 min 0,5 UV-I 497 W/m 10,5 km/h (2 Bft)
06.06.2014 09:26 16,4 C 13,3 C 77 % 1017,2 hPa 0,0 l/m 2 min 0 min 0,5 UV-I 501 W/m 6,3 km/h (2 Bft)
06.06.2014 09:28 16,6 C 13,9 C 77 % 1017,2 hPa 0,0 l/m 2 min 0 min 0,5 UV-I 506 W/m 12,6 km/h (3 Bft)
06.06.2014 09:30 16,7 C 13,9 C 75 % 1017,1 hPa 0,0 l/m 2 min 0 min 0,5 UV-I 510 W/m 10,5 km/h (2 Bft)
06.06.2014 09:32 16,8 C 13,9 C 76 % 1017,2 hPa 0,0 l/m 2 min 0 min 0,5 UV-I 515 W/m 12,6 km/h (3 Bft)
06.06.2014 09:34 16,8 C 13,9 C 75 % 1017,2 hPa 0,0 l/m 2 min 0 min 0,5 UV-I 522 W/m 8,4 km/h (2 Bft)
06.06.2014 09:36 16,9 C 14,4 C 76 % 1017,1 hPa 0,0 l/m 2 min 0 min 0,6 UV-I 526 W/m 12,6 km/h (3 Bft)
06.06.2014 09:38 17,1 C 14,4 C 74 % 1017,1 hPa 0,0 l/m 2 min 0 min 0,6 UV-I 529 W/m 12,6 km/h (3 Bft)
06.06.2014 09:40 17,2 C 14,4 C 73 % 1017,2 hPa 0,0 l/m 2 min 0 min 0,7 UV-I 536 W/m 12,6 km/h (3 Bft)
06.06.2014 09:42 17,2 C 14,4 C 74 % 1017,1 hPa 0,0 l/m 2 min 0 min 0,9 UV-I 540 W/m 12,6 km/h (3 Bft)
06.06.2014 09:44 17,3 C 15,0 C 73 % 1017,1 hPa 0,0 l/m 2 min 0 min 1,1 UV-I 543 W/m 10,5 km/h (2 Bft)
06.06.2014 09:46 17,6 C 15,0 C 74 % 1017,1 hPa 0,0 l/m 2 min 0 min 1,4 UV-I 548 W/m 10,5 km/h (2 Bft)
06.06.2014 09:48 17,6 C 15,0 C 72 % 1017,1 hPa 0,0 l/m 2 min 0 min 1,6 UV-I 555 W/m 2,1 km/h (1 Bft)
06.06.2014 09:50 17,7 C 15,6 C 73 % 1017,1 hPa 0,0 l/m 2 min 0 min 1,7 UV-I 559 W/m 8,4 km/h (2 Bft)
06.06.2014 09:52 17,8 C 16,1 C 71 % 1017,1 hPa 0,0 l/m 2 min 0 min 1,8 UV-I 563 W/m 2,1 km/h (1 Bft)
06.06.2014 09:54 17,8 C 16,7 C 70 % 1017,1 hPa 0,0 l/m 2 min 0 min 1,9 UV-I 566 W/m 8,4 km/h (2 Bft)
06.06.2014 09:56 17,9 C 17,8 C 71 % 1017,1 hPa 0,0 l/m 2 min 0 min 1,9 UV-I 570 W/m 8,4 km/h (2 Bft)
06.06.2014 09:58 18,1 C 18,9 C 71 % 1017,1 hPa 0,0 l/m 2 min 0 min 2,0 UV-I 575 W/m 6,3 km/h (2 Bft)
06.06.2014 10:00 18,2 C 19,4 C 69 % 1017,0 hPa 0,0 l/m 2 min 0 min 2,0 UV-I 578 W/m 10,5 km/h (2 Bft)
06.06.2014 10:02 18,4 C 20,6 C 69 % 1017,0 hPa 0,0 l/m 2 min 0 min 2,0 UV-I 582 W/m 12,6 km/h (3 Bft)
06.06.2014 10:06 18,6 C 21,1 C 69 % 1017,0 hPa 0,0 l/m 2 min 0 min 2,1 UV-I 592 W/m 12,6 km/h (3 Bft)
06.06.2014 10:08 18,7 C 20,6 C 68 % 1017,0 hPa 0,0 l/m 2 min 0 min 2,2 UV-I 594 W/m 12,6 km/h (3 Bft)
06.06.2014 10:10 18,8 C 20,0 C 68 % 1016,9 hPa 0,0 l/m 2 min 0 min 2,2 UV-I 599 W/m 12,6 km/h (3 Bft)
06.06.2014 10:12 18,8 C 19,4 C 66 % 1016,9 hPa 0,0 l/m 2 min 0 min 2,3 UV-I 603 W/m 14,6 km/h (3 Bft)
06.06.2014 10:14 18,9 C 19,4 C 68 % 1016,9 hPa 0,0 l/m 2 min 0 min 2,3 UV-I 606 W/m 12,6 km/h (3 Bft)
06.06.2014 10:16 19,0 C 20,6 C 67 % 1016,9 hPa 0,0 l/m 2 min 0 min 2,4 UV-I 615 W/m 16,7 km/h (3 Bft)
06.06.2014 10:18 19,0 C 21,7 C 64 % 1016,9 hPa 0,0 l/m 2 min 0 min 2,4 UV-I 619 W/m 12,6 km/h (3 Bft)
06.06.2014 10:20 19,0 C 22,2 C 65 % 1016,9 hPa 0,0 l/m 2 min 0 min 2,5 UV-I 624 W/m 16,7 km/h (3 Bft)
06.06.2014 10:22 19,2 C 22,2 C 67 % 1016,9 hPa 0,0 l/m 2 min 0 min 2,6 UV-I 628 W/m 16,7 km/h (3 Bft)
06.06.2014 10:24 19,2 C 21,1 C 63 % 1016,9 hPa 0,0 l/m 2 min 0 min 2,6 UV-I 631 W/m 14,6 km/h (3 Bft)
06.06.2014 10:26 19,1 C 20,0 C 63 % 1016,9 hPa 0,0 l/m 2 min 0 min 2,6 UV-I 636 W/m 12,6 km/h (3 Bft)
06.06.2014 10:28 19,0 C 19,4 C 63 % 1016,9 hPa 0,0 l/m 2 min 0 min 2,7 UV-I 638 W/m 16,7 km/h (3 Bft)
06.06.2014 10:30 19,0 C 20,0 C 63 % 1016,9 hPa 0,0 l/m 2 min 0 min 2,7 UV-I 642 W/m 12,6 km/h (3 Bft)
06.06.2014 10:32 19,0 C 20,0 C 63 % 1016,8 hPa 0,0 l/m 2 min 0 min 2,8 UV-I 649 W/m 10,5 km/h (2 Bft)
06.06.2014 10:34 19,3 C 21,1 C 66 % 1016,9 hPa 0,0 l/m 2 min 0 min 2,8 UV-I 652 W/m 14,6 km/h (3 Bft)
06.06.2014 10:36 19,4 C 22,2 C 60 % 1016,9 hPa 0,0 l/m 2 min 0 min 2,9 UV-I 657 W/m 18,8 km/h (3 Bft)
06.06.2014 10:38 19,3 C 21,7 C 60 % 1016,8 hPa 0,0 l/m 2 min 0 min 2,9 UV-I 661 W/m 12,6 km/h (3 Bft)
06.06.2014 10:40 19,3 C 21,1 C 60 % 1016,8 hPa 0,0 l/m 2 min 0 min 3,0 UV-I 663 W/m 8,4 km/h (2 Bft)
06.06.2014 10:42 19,4 C 21,1 C 63 % 1016,8 hPa 0,0 l/m 2 min 0 min 3,0 UV-I 666 W/m 4,2 km/h (1 Bft)
06.06.2014 10:44 19,5 C 21,1 C 60 % 1016,8 hPa 0,0 l/m 2 min 0 min 3,0 UV-I 671 W/m 4,2 km/h (1 Bft)
06.06.2014 10:46 19,6 C 21,1 C 63 % 1016,8 hPa 0,0 l/m 2 min 0 min 3,1 UV-I 675 W/m 4,2 km/h (1 Bft)
06.06.2014 10:48 19,7 C 21,1 C 60 % 1016,7 hPa 0,0 l/m 2 min 0 min 3,1 UV-I 680 W/m 14,6 km/h (3 Bft)
06.06.2014 10:50 19,8 C 21,7 C 61 % 1016,8 hPa 0,0 l/m 2 min 0 min 3,2 UV-I 684 W/m 12,6 km/h (3 Bft)
06.06.2014 10:52 19,9 C 21,7 C 62 % 1016,8 hPa 0,0 l/m 2 min 0 min 3,2 UV-I 687 W/m 10,5 km/h (2 Bft)
06.06.2014 10:54 19,9 C 21,7 C 63 % 1016,7 hPa 0,0 l/m 2 min 0 min 3,3 UV-I 691 W/m 8,4 km/h (2 Bft)
06.06.2014 10:56 19,9 C 22,2 C 59 % 1016,7 hPa 0,0 l/m 2 min 0 min 3,3 UV-I 694 W/m 10,5 km/h (2 Bft)
06.06.2014 10:58 20,1 C 22,8 C 63 % 1016,7 hPa 0,0 l/m 2 min 0 min 3,4 UV-I 696 W/m 14,6 km/h (3 Bft)
06.06.2014 11:00 20,2 C 23,9 C 61 % 1016,8 hPa 0,0 l/m 2 min 0 min 3,4 UV-I 687 W/m 12,6 km/h (3 Bft)
06.06.2014 11:02 20,2 C 23,9 C 57 % 1016,8 hPa 0,0 l/m 2 min 0 min 3,4 UV-I 705 W/m 10,5 km/h (2 Bft)
06.06.2014 11:06 19,8 C 23,9 C 59 % 1016,8 hPa 0,0 l/m 2 min 0 min 3,6 UV-I 712 W/m 14,6 km/h (3 Bft)
06.06.2014 11:08 20,0 C 23,9 C 60 % 1016,7 hPa 0,0 l/m 2 min 0 min 3,6 UV-I 717 W/m 10,5 km/h (2 Bft)
06.06.2014 11:10 20,2 C 24,4 C 59 % 1016,8 hPa 0,0 l/m 2 min 0 min 3,7 UV-I 715 W/m 14,6 km/h (3 Bft)
06.06.2014 11:12 20,4 C 25,0 C 60 % 1016,7 hPa 0,0 l/m 2 min 0 min 3,7 UV-I 722 W/m 16,7 km/h (3 Bft)
06.06.2014 11:14 20,4 C 25,0 C 58 % 1016,7 hPa 0,0 l/m 2 min 0 min 3,8 UV-I 729 W/m 8,4 km/h (2 Bft)
06.06.2014 11:16 20,2 C 23,9 C 55 % 1016,7 hPa 0,0 l/m 2 min 0 min 3,8 UV-I 733 W/m 2,1 km/h (1 Bft)
06.06.2014 11:18 20,1 C 24,4 C 58 % 1016,7 hPa 0,0 l/m 2 min 0 min 3,8 UV-I 728 W/m 16,7 km/h (3 Bft)
06.06.2014 11:20 20,2 C 23,9 C 57 % 1016,7 hPa 0,0 l/m 2 min 0 min 3,8 UV-I 735 W/m 20,9 km/h (4 Bft)
06.06.2014 11:22 20,2 C 23,9 C 57 % 1016,7 hPa 0,0 l/m 2 min 0 min 3,9 UV-I 729 W/m 16,7 km/h (3 Bft)
06.06.2014 11:24 20,4 C 24,4 C 59 % 1016,7 hPa 0,0 l/m 2 min 0 min 3,8 UV-I 703 W/m 14,6 km/h (3 Bft)
06.06.2014 11:26 20,4 C 24,4 C 57 % 1016,7 hPa 0,0 l/m 2 min 0 min 4,0 UV-I 737 W/m 8,4 km/h (2 Bft)
06.06.2014 11:28 20,6 C 24,4 C 57 % 1016,6 hPa 0,0 l/m 2 min 0 min 4,0 UV-I 744 W/m 10,5 km/h (2 Bft)
06.06.2014 11:30 20,8 C 23,3 C 59 % 1016,7 hPa 0,0 l/m 2 min 0 min 4,0 UV-I 751 W/m 18,8 km/h (3 Bft)
06.06.2014 11:32 21,0 C 22,2 C 59 % 1016,7 hPa 0,0 l/m 2 min 0 min 4,2 UV-I 759 W/m 14,6 km/h (3 Bft)
06.06.2014 11:34 21,0 C 21,7 C 55 % 1016,7 hPa 0,0 l/m 2 min 0 min 4,2 UV-I 763 W/m 12,6 km/h (3 Bft)
06.06.2014 11:36 21,1 C 22,2 C 55 % 1016,6 hPa 0,0 l/m 2 min 0 min 4,3 UV-I 765 W/m 14,6 km/h (3 Bft)
06.06.2014 11:38 21,0 C 22,8 C 54 % 1016,6 hPa 0,0 l/m 2 min 0 min 4,3 UV-I 765 W/m 6,3 km/h (2 Bft)
06.06.2014 11:40 21,0 C 24,4 C 56 % 1016,5 hPa 0,0 l/m 2 min 0 min 4,3 UV-I 772 W/m 14,6 km/h (3 Bft)
06.06.2014 11:42 21,3 C 25,6 C 61 % 1016,5 hPa 0,0 l/m 2 min 0 min 4,3 UV-I 758 W/m 14,6 km/h (3 Bft)
06.06.2014 11:44 21,5 C 25,6 C 59 % 1016,5 hPa 0,0 l/m 2 min 0 min 4,4 UV-I 766 W/m 12,6 km/h (3 Bft)
06.06.2014 11:46 21,6 C 25,6 C 55 % 1016,5 hPa 0,0 l/m 2 min 0 min 4,4 UV-I 765 W/m 12,6 km/h (3 Bft)
06.06.2014 11:48 21,5 C 25,6 C 54 % 1016,5 hPa 0,0 l/m 2 min 0 min 4,4 UV-I 749 W/m 10,5 km/h (2 Bft)
06.06.2014 11:50 21,4 C 26,1 C 56 % 1016,4 hPa 0,0 l/m 2 min 0 min 4,5 UV-I 768 W/m 12,6 km/h (3 Bft)
06.06.2014 11:52 21,4 C 26,1 C 54 % 1016,4 hPa 0,0 l/m 2 min 0 min 4,5 UV-I 775 W/m 14,6 km/h (3 Bft)
06.06.2014 11:54 21,5 C 26,1 C 54 % 1016,4 hPa 0,0 l/m 2 min 0 min 4,6 UV-I 779 W/m 14,6 km/h (3 Bft)
06.06.2014 11:56 21,4 C 25,6 C 54 % 1016,4 hPa 0,0 l/m 2 min 0 min 4,7 UV-I 758 W/m 12,6 km/h (3 Bft)
06.06.2014 11:58 21,5 C 26,1 C 58 % 1016,4 hPa 0,0 l/m 2 min 0 min 4,7 UV-I 789 W/m 10,5 km/h (2 Bft)
06.06.2014 12:00 21,8 C 26,7 C 57 % 1016,4 hPa 0,0 l/m 2 min 0 min 4,5 UV-I 784 W/m 2,1 km/h (1 Bft)
06.06.2014 12:02 22,1 C 27,2 C 56 % 1016,4 hPa 0,0 l/m 2 min 0 min 2,0 UV-I 789 W/m 16,7 km/h (3 Bft)
06.06.2014 12:06 22,1 C 26,1 C 55 % 1016,4 hPa 0,0 l/m 2 min 0 min 4,7 UV-I 791 W/m 20,9 km/h (4 Bft)
06.06.2014 12:08 22,1 C 26,7 C 52 % 1016,4 hPa 0,0 l/m 2 min 0 min 4,8 UV-I 789 W/m 14,6 km/h (3 Bft)
06.06.2014 12:10 21,9 C 26,1 C 55 % 1016,3 hPa 0,0 l/m 2 min 0 min 4,9 UV-I 802 W/m 10,5 km/h (2 Bft)
06.06.2014 12:12 21,8 C 26,1 C 52 % 1016,3 hPa 0,0 l/m 2 min 0 min 4,8 UV-I 756 W/m 10,5 km/h (2 Bft)
06.06.2014 12:14 21,6 C 26,1 C 53 % 1016,3 hPa 0,0 l/m 2 min 0 min 4,8 UV-I 738 W/m 4,2 km/h (1 Bft)
06.06.2014 12:16 21,8 C 26,1 C 55 % 1016,3 hPa 0,0 l/m 2 min 0 min 4,8 UV-I 737 W/m 6,3 km/h (2 Bft)
06.06.2014 12:18 21,9 C 26,7 C 53 % 1016,3 hPa 0,0 l/m 2 min 0 min 4,8 UV-I 777 W/m 14,6 km/h (3 Bft)
06.06.2014 12:20 22,1 C 26,7 C 53 % 1016,2 hPa 0,0 l/m 2 min 0 min 4,9 UV-I 770 W/m 18,8 km/h (3 Bft)
06.06.2014 12:22 22,2 C 26,7 C 52 % 1016,2 hPa 0,0 l/m 2 min 0 min 5,0 UV-I 752 W/m 18,8 km/h (3 Bft)
06.06.2014 12:24 22,2 C 26,1 C 52 % 1016,2 hPa 0,0 l/m 2 min 0 min 5,1 UV-I 777 W/m 12,6 km/h (3 Bft)
06.06.2014 12:26 22,1 C 26,1 C 52 % 1016,2 hPa 0,0 l/m 2 min 0 min 5,2 UV-I 777 W/m 12,6 km/h (3 Bft)
06.06.2014 12:28 22,2 C 25,6 C 52 % 1016,2 hPa 0,0 l/m 2 min 0 min 5,4 UV-I 777 W/m 20,9 km/h (4 Bft)
06.06.2014 12:30 22,2 C 25,6 C 53 % 1016,2 hPa 0,0 l/m 2 min 0 min 5,3 UV-I 777 W/m 16,7 km/h (3 Bft)
06.06.2014 12:32 22,3 C 25,0 C 52 % 1016,2 hPa 0,0 l/m 2 min 0 min 5,1 UV-I 777 W/m 14,6 km/h (3 Bft)
06.06.2014 12:34 22,3 C 25,0 C 54 % 1016,2 hPa 0,0 l/m 2 min 0 min 4,9 UV-I 777 W/m 14,6 km/h (3 Bft)
06.06.2014 12:36 22,3 C 24,4 C 51 % 1016,1 hPa 0,0 l/m 2 min 0 min 5,0 UV-I 777 W/m 12,6 km/h (3 Bft)
06.06.2014 12:38 22,1 C 24,4 C 52 % 1016,1 hPa 0,0 l/m 2 min 0 min 5,1 UV-I 777 W/m 8,4 km/h (2 Bft)
06.06.2014 12:40 22,3 C 24,4 C 51 % 1016,0 hPa 0,0 l/m 2 min 0 min 5,2 UV-I 777 W/m 12,6 km/h (3 Bft)
06.06.2014 12:42 22,3 C 25,0 C 49 % 1016,1 hPa 0,0 l/m 2 min 0 min 5,3 UV-I 777 W/m 8,4 km/h (2 Bft)
06.06.2014 12:44 22,4 C 25,0 C 51 % 1016,1 hPa 0,0 l/m 2 min 0 min 5,3 UV-I 777 W/m 4,2 km/h (1 Bft)
06.06.2014 12:46 22,5 C 25,0 C 50 % 1016,0 hPa 0,0 l/m 2 min 0 min 5,3 UV-I 777 W/m 8,4 km/h (2 Bft)
06.06.2014 12:48 22,6 C 24,4 C 54 % 1016,0 hPa 0,0 l/m 2 min 0 min 5,4 UV-I 777 W/m 14,6 km/h (3 Bft)
06.06.2014 12:50 22,5 C 23,9 C 51 % 1016,1 hPa 0,0 l/m 2 min 0 min 5,3 UV-I 777 W/m 25,1 km/h (4 Bft)
06.06.2014 12:52 22,5 C 23,9 C 53 % 1016,1 hPa 0,0 l/m 2 min 0 min 5,2 UV-I 777 W/m 18,8 km/h (3 Bft)
06.06.2014 12:54 22,8 C 23,9 C 54 % 1016,0 hPa 0,0 l/m 2 min 0 min 5,2 UV-I 777 W/m 23,0 km/h (4 Bft)
06.06.2014 12:56 22,8 C 23,3 C 53 % 1016,1 hPa 0,0 l/m 2 min 0 min 5,0 UV-I 777 W/m 12,6 km/h (3 Bft)
06.06.2014 12:58 22,7 C 23,3 C 52 % 1016,1 hPa 0,0 l/m 2 min 0 min 5,4 UV-I 777 W/m 10,5 km/h (2 Bft)
06.06.2014 13:00 22,8 C 23,3 C 53 % 1016,0 hPa 0,0 l/m 2 min 0 min 5,1 UV-I 777 W/m 10,5 km/h (2 Bft)
06.06.2014 13:02 22,8 C 23,3 C 51 % 1016,1 hPa 0,0 l/m 2 min 0 min 5,1 UV-I 777 W/m 8,4 km/h (2 Bft)
06.06.2014 13:06 22,9 C 23,3 C 50 % 1016,0 hPa 0,0 l/m 2 min 0 min 5,3 UV-I 777 W/m 12,6 km/h (3 Bft)
06.06.2014 13:08 22,9 C 23,9 C 53 % 1016,0 hPa 0,0 l/m 2 min 0 min 4,9 UV-I 777 W/m 14,6 km/h (3 Bft)
06.06.2014 13:10 23,0 C 24,4 C 53 % 1015,9 hPa 0,0 l/m 2 min 0 min 5,5 UV-I 777 W/m 8,4 km/h (2 Bft)
06.06.2014 13:12 23,1 C 25,0 C 54 % 1016,0 hPa 0,0 l/m 2 min 0 min 5,5 UV-I 777 W/m 12,6 km/h (3 Bft)
06.06.2014 13:14 23,3 C 25,6 C 50 % 1016,0 hPa 0,0 l/m 2 min 0 min 5,5 UV-I 777 W/m 14,6 km/h (3 Bft)
06.06.2014 13:16 23,2 C 25,0 C 51 % 1016,0 hPa 0,0 l/m 2 min 0 min 5,6 UV-I 777 W/m 10,5 km/h (2 Bft)
06.06.2014 13:18 23,1 C 23,9 C 50 % 1016,0 hPa 0,0 l/m 2 min 0 min 5,6 UV-I 777 W/m 8,4 km/h (2 Bft)
06.06.2014 13:20 23,2 C 23,3 C 52 % 1015,9 hPa 0,0 l/m 2 min 0 min 5,8 UV-I 777 W/m 10,5 km/h (2 Bft)
06.06.2014 13:22 23,3 C 23,3 C 51 % 1015,9 hPa 0,0 l/m 2 min 0 min 5,7 UV-I 777 W/m 10,5 km/h (2 Bft)
06.06.2014 13:24 23,3 C 23,3 C 54 % 1015,9 hPa 0,0 l/m 2 min 0 min 5,5 UV-I 777 W/m 14,6 km/h (3 Bft)
06.06.2014 13:26 23,4 C 22,8 C 49 % 1015,8 hPa 0,0 l/m 2 min 0 min 5,6 UV-I 777 W/m 18,8 km/h (3 Bft)
06.06.2014 13:28 23,4 C 22,8 C 50 % 1015,8 hPa 0,0 l/m 2 min 0 min 5,7 UV-I 777 W/m 12,6 km/h (3 Bft)
06.06.2014 13:30 23,5 C 22,8 C 50 % 1015,8 hPa 0,0 l/m 2 min 0 min 5,6 UV-I 777 W/m 14,6 km/h (3 Bft)
06.06.2014 13:32 23,4 C 22,8 C 50 % 1015,8 hPa 0,0 l/m 2 min 0 min 5,6 UV-I 777 W/m 10,5 km/h (2 Bft)
06.06.2014 13:34 23,5 C 22,8 C 50 % 1015,7 hPa 0,0 l/m 2 min 0 min 5,5 UV-I 777 W/m 10,5 km/h (2 Bft)
06.06.2014 13:36 23,5 C 22,8 C 51 % 1015,7 hPa 0,0 l/m 2 min 0 min 5,6 UV-I 777 W/m 8,4 km/h (2 Bft)
06.06.2014 13:38 23,6 C 22,8 C 49 % 1015,7 hPa 0,0 l/m 2 min 0 min 5,5 UV-I 777 W/m 20,9 km/h (4 Bft)
06.06.2014 13:40 23,6 C 22,8 C 49 % 1015,7 hPa 0,0 l/m 2 min 0 min 5,5 UV-I 777 W/m 12,6 km/h (3 Bft)
06.06.2014 13:42 23,7 C 22,8 C 51 % 1015,7 hPa 0,0 l/m 2 min 0 min 5,5 UV-I 777 W/m 14,6 km/h (3 Bft)
06.06.2014 13:44 23,8 C 22,8 C 48 % 1015,7 hPa 0,0 l/m 2 min 0 min 5,6 UV-I 777 W/m 18,8 km/h (3 Bft)
06.06.2014 13:46 23,9 C 22,8 C 50 % 1015,7 hPa 0,0 l/m 2 min 0 min 5,7 UV-I 777 W/m 20,9 km/h (4 Bft)
06.06.2014 13:48 23,8 C 22,8 C 49 % 1015,8 hPa 0,0 l/m 2 min 0 min 5,5 UV-I 777 W/m 20,9 km/h (4 Bft)
06.06.2014 13:50 23,9 C 22,8 C 47 % 1015,7 hPa 0,0 l/m 2 min 0 min 5,6 UV-I 777 W/m 14,6 km/h (3 Bft)
06.06.2014 13:52 23,7 C 22,8 C 48 % 1015,7 hPa 0,0 l/m 2 min 0 min 5,5 UV-I 777 W/m 18,8 km/h (3 Bft)
06.06.2014 13:54 23,7 C 22,8 C 49 % 1015,6 hPa 0,0 l/m 2 min 0 min 5,7 UV-I 777 W/m 14,6 km/h (3 Bft)
06.06.2014 13:56 23,8 C 22,8 C 50 % 1015,6 hPa 0,0 l/m 2 min 0 min 5,7 UV-I 777 W/m 8,4 km/h (2 Bft)
06.06.2014 13:58 23,8 C 22,8 C 51 % 1015,6 hPa 0,0 l/m 2 min 0 min 5,6 UV-I 777 W/m 18,8 km/h (3 Bft)
06.06.2014 14:00 23,8 C 22,8 C 49 % 1015,6 hPa 0,0 l/m 2 min 0 min 5,6 UV-I 777 W/m 18,8 km/h (3 Bft)
06.06.2014 14:02 23,8 C 22,8 C 50 % 1015,5 hPa 0,0 l/m 2 min 0 min 5,7 UV-I 777 W/m 20,9 km/h (4 Bft)
06.06.2014 14:06 23,9 C 25,0 C 50 % 1015,6 hPa 0,0 l/m 2 min 0 min 5,6 UV-I 777 W/m 14,6 km/h (3 Bft)
06.06.2014 14:08 24,1 C 25,6 C 47 % 1015,5 hPa 0,0 l/m 2 min 0 min 5,6 UV-I 777 W/m 12,6 km/h (3 Bft)
06.06.2014 14:10 24,0 C 24,4 C 49 % 1015,5 hPa 0,0 l/m 2 min 0 min 5,6 UV-I 777 W/m 18,8 km/h (3 Bft)
06.06.2014 14:12 24,1 C 23,9 C 49 % 1015,5 hPa 0,0 l/m 2 min 0 min 5,6 UV-I 777 W/m 14,6 km/h (3 Bft)
06.06.2014 14:14 23,9 C 23,3 C 47 % 1015,4 hPa 0,0 l/m 2 min 0 min 5,6 UV-I 777 W/m 10,5 km/h (2 Bft)
06.06.2014 14:16 23,9 C 23,3 C 48 % 1015,4 hPa 0,0 l/m 2 min 0 min 5,6 UV-I 770 W/m 8,4 km/h (2 Bft)
06.06.2014 14:18 24,0 C 23,3 C 52 % 1015,3 hPa 0,0 l/m 2 min 0 min 5,4 UV-I 782 W/m 12,6 km/h (3 Bft)
06.06.2014 14:20 24,2 C 23,3 C 52 % 1015,3 hPa 0,0 l/m 2 min 0 min 5,4 UV-I 786 W/m 10,5 km/h (2 Bft)
06.06.2014 14:22 24,6 C 23,3 C 50 % 1015,4 hPa 0,0 l/m 2 min 0 min 5,4 UV-I 795 W/m 18,8 km/h (3 Bft)
06.06.2014 14:24 24,7 C 23,3 C 49 % 1015,3 hPa 0,0 l/m 2 min 0 min 5,4 UV-I 789 W/m 20,9 km/h (4 Bft)
06.06.2014 14:26 24,7 C 23,3 C 49 % 1015,3 hPa 0,0 l/m 2 min 0 min 5,4 UV-I 796 W/m 14,6 km/h (3 Bft)
06.06.2014 14:28 24,6 C 23,3 C 46 % 1015,2 hPa 0,0 l/m 2 min 0 min 5,4 UV-I 803 W/m 10,5 km/h (2 Bft)
06.06.2014 14:30 24,4 C 22,8 C 51 % 1015,2 hPa 0,0 l/m 2 min 0 min 5,3 UV-I 796 W/m 12,6 km/h (3 Bft)
06.06.2014 14:32 24,3 C 22,8 C 47 % 1015,2 hPa 0,0 l/m 2 min 0 min 5,4 UV-I 805 W/m 8,4 km/h (2 Bft)
06.06.2014 14:34 24,0 C 22,8 C 46 % 1015,2 hPa 0,0 l/m 2 min 0 min 5,4 UV-I 814 W/m 8,4 km/h (2 Bft)
06.06.2014 14:36 23,9 C 22,8 C 47 % 1015,2 hPa 0,0 l/m 2 min 0 min 5,1 UV-I 770 W/m 8,4 km/h (2 Bft)
06.06.2014 14:38 24,1 C 22,8 C 50 % 1015,1 hPa 0,0 l/m 2 min 0 min 5,4 UV-I 821 W/m 14,6 km/h (3 Bft)
06.06.2014 14:40 24,3 C 22,8 C 49 % 1015,2 hPa 0,0 l/m 2 min 0 min 5,4 UV-I 828 W/m 14,6 km/h (3 Bft)
06.06.2014 14:42 24,6 C 22,8 C 50 % 1015,1 hPa 0,0 l/m 2 min 0 min 5,3 UV-I 812 W/m 12,6 km/h (3 Bft)
06.06.2014 14:44 24,9 C 23,3 C 49 % 1015,1 hPa 0,0 l/m 2 min 0 min 5,3 UV-I 810 W/m 14,6 km/h (3 Bft)
06.06.2014 14:46 24,9 C 23,3 C 49 % 1015,1 hPa 0,0 l/m 2 min 0 min 5,3 UV-I 821 W/m 6,3 km/h (2 Bft)
06.06.2014 14:48 25,0 C 23,3 C 47 % 1015,1 hPa 0,0 l/m 2 min 0 min 5,2 UV-I 807 W/m 16,7 km/h (3 Bft)
06.06.2014 14:50 25,0 C 23,3 C 47 % 1015,1 hPa 0,0 l/m 2 min 0 min 5,1 UV-I 777 W/m 23,0 km/h (4 Bft)
06.06.2014 14:52 24,9 C 23,3 C 46 % 1015,1 hPa 0,0 l/m 2 min 0 min 5,0 UV-I 775 W/m 16,7 km/h (3 Bft)
06.06.2014 14:54 24,9 C 23,3 C 45 % 1015,1 hPa 0,0 l/m 2 min 0 min 5,0 UV-I 784 W/m 12,6 km/h (3 Bft)
06.06.2014 14:56 24,4 C 22,8 C 47 % 1015,1 hPa 0,0 l/m 2 min 0 min 5,1 UV-I 789 W/m 10,5 km/h (2 Bft)
06.06.2014 14:58 24,3 C 22,8 C 46 % 1015,0 hPa 0,0 l/m 2 min 0 min 5,0 UV-I 798 W/m 2,1 km/h (1 Bft)
06.06.2014 15:00 24,5 C 23,3 C 48 % 1015,0 hPa 0,0 l/m 2 min 0 min 4,9 UV-I 788 W/m 10,5 km/h (2 Bft)
06.06.2014 15:02 24,5 C 23,3 C 50 % 1014,9 hPa 0,0 l/m 2 min 0 min 5,0 UV-I 789 W/m 18,8 km/h (3 Bft)
06.06.2014 15:06 24,7 C 23,3 C 48 % 1015,0 hPa 0,0 l/m 2 min 0 min 5,0 UV-I 786 W/m 18,8 km/h (3 Bft)
06.06.2014 15:08 24,7 C 23,3 C 47 % 1015,0 hPa 0,0 l/m 2 min 0 min 5,0 UV-I 807 W/m 14,6 km/h (3 Bft)
06.06.2014 15:10 24,7 C 23,3 C 47 % 1015,0 hPa 0,0 l/m 2 min 0 min 5,0 UV-I 807 W/m 12,6 km/h (3 Bft)
06.06.2014 15:12 24,7 C 23,3 C 44 % 1015,0 hPa 0,0 l/m 2 min 0 min 4,9 UV-I 805 W/m 10,5 km/h (2 Bft)
06.06.2014 15:14 24,3 C 22,8 C 47 % 1015,0 hPa 0,0 l/m 2 min 0 min 4,8 UV-I 791 W/m 8,4 km/h (2 Bft)
06.06.2014 15:16 24,6 C 23,3 C 48 % 1015,0 hPa 0,0 l/m 2 min 0 min 4,8 UV-I 795 W/m 14,6 km/h (3 Bft)
06.06.2014 15:18 24,7 C 23,3 C 46 % 1014,9 hPa 0,0 l/m 2 min 0 min 4,8 UV-I 784 W/m 4,2 km/h (1 Bft)
06.06.2014 15:20 24,5 C 23,3 C 48 % 1014,9 hPa 0,0 l/m 2 min 0 min 4,8 UV-I 793 W/m 6,3 km/h (2 Bft)
06.06.2014 15:22 24,5 C 23,3 C 46 % 1014,8 hPa 0,0 l/m 2 min 0 min 4,8 UV-I 791 W/m 2,1 km/h (1 Bft)
06.06.2014 15:24 24,8 C 23,3 C 47 % 1014,8 hPa 0,0 l/m 2 min 0 min 4,7 UV-I 784 W/m 16,7 km/h (3 Bft)
06.06.2014 15:26 25,1 C 23,3 C 48 % 1014,8 hPa 0,0 l/m 2 min 0 min 4,7 UV-I 788 W/m 16,7 km/h (3 Bft)
06.06.2014 15:28 25,1 C 23,3 C 49 % 1014,8 hPa 0,0 l/m 2 min 0 min 4,6 UV-I 772 W/m 16,7 km/h (3 Bft)
06.06.2014 15:30 25,4 C 23,9 C 48 % 1014,8 hPa 0,0 l/m 2 min 0 min 4,6 UV-I 780 W/m 14,6 km/h (3 Bft)
06.06.2014 15:32 25,4 C 23,9 C 46 % 1014,7 hPa 0,0 l/m 2 min 0 min 4,6 UV-I 782 W/m 12,6 km/h (3 Bft)
06.06.2014 15:34 25,1 C 23,9 C 47 % 1014,8 hPa 0,0 l/m 2 min 0 min 4,6 UV-I 777 W/m 10,5 km/h (2 Bft)
06.06.2014 15:36 25,0 C 23,3 C 49 % 1014,8 hPa 0,0 l/m 2 min 0 min 4,5 UV-I 775 W/m 10,5 km/h (2 Bft)
06.06.2014 15:38 25,2 C 23,9 C 50 % 1014,8 hPa 0,0 l/m 2 min 0 min 4,5 UV-I 770 W/m 23,0 km/h (4 Bft)
06.06.2014 15:40 25,4 C 23,9 C 48 % 1014,7 hPa 0,0 l/m 2 min 0 min 4,4 UV-I 768 W/m 18,8 km/h (3 Bft)
06.06.2014 15:42 25,4 C 23,9 C 46 % 1014,8 hPa 0,0 l/m 2 min 0 min 4,4 UV-I 766 W/m 14,6 km/h (3 Bft)
06.06.2014 15:44 25,4 C 23,9 C 47 % 1014,7 hPa 0,0 l/m 2 min 0 min 4,4 UV-I 765 W/m 12,6 km/h (3 Bft)
06.06.2014 15:46 25,1 C 23,9 C 44 % 1014,7 hPa 0,0 l/m 2 min 0 min 4,3 UV-I 759 W/m 18,8 km/h (3 Bft)
06.06.2014 15:48 24,9 C 23,9 C 48 % 1014,7 hPa 0,0 l/m 2 min 0 min 4,3 UV-I 761 W/m 18,8 km/h (3 Bft)
06.06.2014 15:50 25,1 C 23,9 C 49 % 1014,7 hPa 0,0 l/m 2 min 0 min 4,2 UV-I 756 W/m 20,9 km/h (4 Bft)
06.06.2014 15:52 25,3 C 23,9 C 46 % 1014,7 hPa 0,0 l/m 2 min 0 min 4,2 UV-I 754 W/m 14,6 km/h (3 Bft)
06.06.2014 15:54 25,3 C 23,9 C 50 % 1014,7 hPa 0,0 l/m 2 min 0 min 4,2 UV-I 754 W/m 10,5 km/h (2 Bft)
06.06.2014 15:56 25,2 C 23,9 C 46 % 1014,6 hPa 0,0 l/m 2 min 0 min 4,1 UV-I 751 W/m 8,4 km/h (2 Bft)
06.06.2014 15:58 25,2 C 23,9 C 47 % 1014,7 hPa 0,0 l/m 2 min 0 min 4,1 UV-I 744 W/m 10,5 km/h (2 Bft)
06.06.2014 16:00 25,3 C 23,9 C 45 % 1014,6 hPa 0,0 l/m 2 min 0 min 4,0 UV-I 742 W/m 8,4 km/h (2 Bft)
06.06.2014 16:02 25,4 C 24,4 C 46 % 1014,6 hPa 0,0 l/m 2 min 0 min 4,0 UV-I 738 W/m 14,6 km/h (3 Bft)
06.06.2014 16:04 25,4 C 24,4 C 46 % 1014,6 hPa 0,0 l/m 2 min 0 min 3,9 UV-I 731 W/m 6,3 km/h (2 Bft)
06.06.2014 16:06 25,6 C 24,4 C 46 % 1014,6 hPa 0,0 l/m 2 min 0 min 3,9 UV-I 729 W/m 12,6 km/h (3 Bft)
06.06.2014 16:08 25,6 C 24,4 C 46 % 1014,6 hPa 0,0 l/m 2 min 0 min 3,7 UV-I 703 W/m 8,4 km/h (2 Bft)
06.06.2014 16:10 25,7 C 24,4 C 44 % 1014,6 hPa 0,0 l/m 2 min 0 min 3,7 UV-I 675 W/m 18,8 km/h (3 Bft)
06.06.2014 16:12 25,5 C 24,4 C 43 % 1014,6 hPa 0,0 l/m 2 min 0 min 3,7 UV-I 694 W/m 12,6 km/h (3 Bft)
06.06.2014 16:14 25,2 C 24,4 C 43 % 1014,6 hPa 0,0 l/m 2 min 0 min 3,6 UV-I 701 W/m 6,3 km/h (2 Bft)
06.06.2014 16:16 25,4 C 25,0 C 44 % 1014,5 hPa 0,0 l/m 2 min 0 min 3,5 UV-I 673 W/m 14,6 km/h (3 Bft)
06.06.2014 16:18 25,5 C 25,0 C 46 % 1014,5 hPa 0,0 l/m 2 min 0 min 3,5 UV-I 721 W/m 14,6 km/h (3 Bft)
06.06.2014 16:20 25,5 C 25,0 C 44 % 1014,5 hPa 0,0 l/m 2 min 0 min 3,6 UV-I 715 W/m 18,8 km/h (3 Bft)
06.06.2014 16:22 25,5 C 24,4 C 44 % 1014,6 hPa 0,0 l/m 2 min 0 min 3,6 UV-I 708 W/m 14,6 km/h (3 Bft)
06.06.2014 16:24 25,5 C 24,4 C 43 % 1014,6 hPa 0,0 l/m 2 min 0 min 3,5 UV-I 712 W/m 10,5 km/h (2 Bft)
06.06.2014 16:26 25,5 C 25,0 C 45 % 1014,6 hPa 0,0 l/m 2 min 0 min 3,5 UV-I 705 W/m 12,6 km/h (3 Bft)
06.06.2014 16:28 25,5 C 24,4 C 42 % 1014,5 hPa 0,0 l/m 2 min 0 min 3,5 UV-I 701 W/m 0,0 km/h (0 Bft)
06.06.2014 16:30 25,4 C 24,4 C 46 % 1014,5 hPa 0,0 l/m 2 min 0 min 3,4 UV-I 693 W/m 2,1 km/h (1 Bft)
06.06.2014 16:32 25,6 C 24,4 C 44 % 1014,5 hPa 0,0 l/m 2 min 0 min 3,3 UV-I 693 W/m 10,5 km/h (2 Bft)
06.06.2014 16:34 25,8 C 24,4 C 43 % 1014,5 hPa 0,0 l/m 2 min 0 min 3,3 UV-I 687 W/m 10,5 km/h (2 Bft)
06.06.2014 16:36 25,9 C 24,4 C 44 % 1014,5 hPa 0,0 l/m 2 min 0 min 3,3 UV-I 682 W/m 4,2 km/h (1 Bft)
06.06.2014 16:38 25,7 C 24,4 C 44 % 1014,4 hPa 0,0 l/m 2 min 0 min 3,2 UV-I 680 W/m 12,6 km/h (3 Bft)
06.06.2014 16:40 25,9 C 24,4 C 44 % 1014,5 hPa 0,0 l/m 2 min 0 min 3,2 UV-I 677 W/m 23,0 km/h (4 Bft)
06.06.2014 16:42 25,9 C 24,4 C 42 % 1014,5 hPa 0,0 l/m 2 min 0 min 3,1 UV-I 675 W/m 8,4 km/h (2 Bft)
06.06.2014 16:44 25,9 C 24,4 C 46 % 1014,4 hPa 0,0 l/m 2 min 0 min 3,1 UV-I 668 W/m 18,8 km/h (3 Bft)
06.06.2014 16:46 26,0 C 24,4 C 43 % 1014,4 hPa 0,0 l/m 2 min 0 min 3,0 UV-I 666 W/m 18,8 km/h (3 Bft)
06.06.2014 16:48 25,9 C 23,9 C 43 % 1014,5 hPa 0,0 l/m 2 min 0 min 3,0 UV-I 664 W/m 10,5 km/h (2 Bft)
06.06.2014 16:50 25,8 C 23,9 C 44 % 1014,5 hPa 0,0 l/m 2 min 0 min 2,9 UV-I 656 W/m 6,3 km/h (2 Bft)
06.06.2014 16:52 25,3 C 23,9 C 43 % 1014,4 hPa 0,0 l/m 2 min 0 min 2,8 UV-I 635 W/m 6,3 km/h (2 Bft)
06.06.2014 16:54 25,4 C 23,9 C 46 % 1014,4 hPa 0,0 l/m 2 min 0 min 2,6 UV-I 566 W/m 14,6 km/h (3 Bft)
06.06.2014 16:56 25,6 C 23,9 C 44 % 1014,4 hPa 0,0 l/m 2 min 0 min 2,7 UV-I 642 W/m 16,7 km/h (3 Bft)
06.06.2014 16:58 25,6 C 23,9 C 45 % 1014,3 hPa 0,0 l/m 2 min 0 min 2,6 UV-I 621 W/m 6,3 km/h (2 Bft)
06.06.2014 17:00 25,8 C 23,9 C 43 % 1014,4 hPa 0,0 l/m 2 min 0 min 2,6 UV-I 603 W/m 14,6 km/h (3 Bft)
06.06.2014 17:02 26,0 C 23,9 C 45 % 1014,3 hPa 0,0 l/m 2 min 0 min 2,5 UV-I 573 W/m 8,4 km/h (2 Bft)
06.06.2014 17:04 25,9 C 23,9 C 45 % 1014,3 hPa 0,0 l/m 2 min 0 min 2,4 UV-I 591 W/m 10,5 km/h (2 Bft)
06.06.2014 17:06 25,9 C 23,9 C 43 % 1014,3 hPa 0,0 l/m 2 min 0 min 2,4 UV-I 568 W/m 12,6 km/h (3 Bft)
06.06.2014 17:08 25,8 C 23,9 C 43 % 1014,2 hPa 0,0 l/m 2 min 0 min 2,4 UV-I 605 W/m 14,6 km/h (3 Bft)
06.06.2014 17:10 25,8 C 23,9 C 44 % 1014,2 hPa 0,0 l/m 2 min 0 min 2,3 UV-I 577 W/m 12,6 km/h (3 Bft)
06.06.2014 17:12 25,6 C 23,3 C 41 % 1014,2 hPa 0,0 l/m 2 min 0 min 2,3 UV-I 554 W/m 4,2 km/h (1 Bft)
06.06.2014 17:14 25,4 C 23,3 C 43 % 1014,3 hPa 0,0 l/m 2 min 0 min 2,1 UV-I 512 W/m 10,5 km/h (2 Bft)
06.06.2014 17:16 25,4 C 23,3 C 45 % 1014,2 hPa 0,0 l/m 2 min 0 min 2,1 UV-I 499 W/m 10,5 km/h (2 Bft)
06.06.2014 17:18 25,5 C 23,3 C 43 % 1014,2 hPa 0,0 l/m 2 min 0 min 2,0 UV-I 501 W/m 10,5 km/h (2 Bft)
06.06.2014 17:20 25,4 C 23,3 C 44 % 1014,1 hPa 0,0 l/m 2 min 0 min 2,1 UV-I 554 W/m 10,5 km/h (2 Bft)
06.06.2014 17:22 25,3 C 23,3 C 45 % 1014,1 hPa 0,0 l/m 2 min 0 min 2,2 UV-I 598 W/m 10,5 km/h (2 Bft)
06.06.2014 17:24 25,5 C 23,3 C 44 % 1014,1 hPa 0,0 l/m 2 min 0 min 2,2 UV-I 598 W/m 0,0 km/h (0 Bft)
06.06.2014 17:26 25,3 C 22,8 C 43 % 1014,0 hPa 0,0 l/m 2 min 0 min 2,1 UV-I 591 W/m 6,3 km/h (2 Bft)
06.06.2014 17:28 25,3 C 22,8 C 44 % 1014,1 hPa 0,0 l/m 2 min 0 min 2,1 UV-I 552 W/m 2,1 km/h (1 Bft)
06.06.2014 17:30 25,4 C 22,8 C 45 % 1014,1 hPa 0,0 l/m 2 min 0 min 1,9 UV-I 475 W/m 14,6 km/h (3 Bft)
06.06.2014 17:32 25,6 C 23,3 C 46 % 1014,2 hPa 0,0 l/m 2 min 0 min 1,9 UV-I 487 W/m 12,6 km/h (3 Bft)
06.06.2014 17:34 25,7 C 22,8 C 43 % 1014,1 hPa 0,0 l/m 2 min 0 min 1,8 UV-I 492 W/m 14,6 km/h (3 Bft)
06.06.2014 17:36 25,5 C 22,8 C 41 % 1014,1 hPa 0,0 l/m 2 min 0 min 1,8 UV-I 478 W/m 4,2 km/h (1 Bft)
06.06.2014 17:38 25,2 C 22,8 C 44 % 1014,2 hPa 0,0 l/m 2 min 0 min 1,8 UV-I 485 W/m 6,3 km/h (2 Bft)
06.06.2014 17:40 25,4 C 22,8 C 43 % 1014,2 hPa 0,0 l/m 2 min 0 min 1,7 UV-I 471 W/m 10,5 km/h (2 Bft)
06.06.2014 17:42 25,5 C 22,8 C 44 % 1014,2 hPa 0,0 l/m 2 min 0 min 1,7 UV-I 475 W/m 10,5 km/h (2 Bft)
06.06.2014 17:44 25,6 C 22,8 C 44 % 1014,1 hPa 0,0 l/m 2 min 0 min 1,6 UV-I 457 W/m 12,6 km/h (3 Bft)
06.06.2014 17:46 25,6 C 22,8 C 44 % 1014,1 hPa 0,0 l/m 2 min 0 min 1,6 UV-I 478 W/m 8,4 km/h (2 Bft)
06.06.2014 17:48 25,5 C 22,8 C 44 % 1014,1 hPa 0,0 l/m 2 min 0 min 1,6 UV-I 492 W/m 2,1 km/h (1 Bft)
06.06.2014 17:50 25,4 C 22,8 C 43 % 1014,1 hPa 0,0 l/m 2 min 0 min 1,7 UV-I 513 W/m 8,4 km/h (2 Bft)
06.06.2014 17:52 25,3 C 22,8 C 43 % 1014,0 hPa 0,0 l/m 2 min 0 min 1,7 UV-I 538 W/m 2,1 km/h (1 Bft)
06.06.2014 17:54 25,3 C 22,8 C 44 % 1014,1 hPa 0,0 l/m 2 min 0 min 1,6 UV-I 531 W/m 10,5 km/h (2 Bft)
06.06.2014 17:56 25,3 C 22,8 C 42 % 1014,0 hPa 0,0 l/m 2 min 0 min 1,6 UV-I 517 W/m 0,0 km/h (0 Bft)
06.06.2014 17:58 25,1 C 22,2 C 42 % 1014,0 hPa 0,0 l/m 2 min 0 min 1,6 UV-I 510 W/m 8,4 km/h (2 Bft)
06.06.2014 18:00 25,1 C 22,2 C 43 % 1014,0 hPa 0,0 l/m 2 min 0 min 1,5 UV-I 494 W/m 8,4 km/h (2 Bft)
06.06.2014 18:02 25,1 C 22,2 C 43 % 1014,0 hPa 0,0 l/m 2 min 0 min 1,4 UV-I 476 W/m 2,1 km/h (1 Bft)
06.06.2014 18:06 25,1 C 22,2 C 43 % 1014,0 hPa 0,0 l/m 2 min 0 min 1,4 UV-I 492 W/m 14,6 km/h (3 Bft)
06.06.2014 18:08 25,1 C 22,2 C 43 % 1014,0 hPa 0,0 l/m 2 min 0 min 1,4 UV-I 492 W/m 6,3 km/h (2 Bft)
06.06.2014 18:10 25,1 C 22,2 C 43 % 1014,0 hPa 0,0 l/m 2 min 0 min 1,3 UV-I 483 W/m 10,5 km/h (2 Bft)
06.06.2014 18:12 25,3 C 22,2 C 43 % 1013,9 hPa 0,0 l/m 2 min 0 min 1,3 UV-I 480 W/m 6,3 km/h (2 Bft)
06.06.2014 18:14 25,3 C 22,2 C 41 % 1014,0 hPa 0,0 l/m 2 min 0 min 1,3 UV-I 476 W/m 0,0 km/h (0 Bft)
06.06.2014 18:16 25,2 C 22,2 C 42 % 1013,9 hPa 0,0 l/m 2 min 0 min 1,3 UV-I 469 W/m 0,0 km/h (0 Bft)
06.06.2014 18:18 25,2 C 22,2 C 44 % 1013,9 hPa 0,0 l/m 2 min 0 min 1,3 UV-I 455 W/m 2,1 km/h (1 Bft)
06.06.2014 18:20 25,2 C 21,7 C 45 % 1013,9 hPa 0,0 l/m 2 min 0 min 1,2 UV-I 452 W/m 8,4 km/h (2 Bft)
06.06.2014 18:22 25,2 C 21,7 C 44 % 1013,9 hPa 0,0 l/m 2 min 0 min 1,1 UV-I 367 W/m 8,4 km/h (2 Bft)
06.06.2014 18:24 25,2 C 21,7 C 44 % 1013,9 hPa 0,0 l/m 2 min 0 min 1,2 UV-I 432 W/m 6,3 km/h (2 Bft)
06.06.2014 18:26 25,2 C 21,7 C 43 % 1013,9 hPa 0,0 l/m 2 min 0 min 1,2 UV-I 441 W/m 12,6 km/h (3 Bft)
06.06.2014 18:28 25,1 C 21,7 C 44 % 1013,9 hPa 0,0 l/m 2 min 0 min 1,1 UV-I 434 W/m 10,5 km/h (2 Bft)
06.06.2014 18:30 25,1 C 21,7 C 45 % 1013,9 hPa 0,0 l/m 2 min 0 min 1,0 UV-I 431 W/m 8,4 km/h (2 Bft)
06.06.2014 18:32 25,1 C 21,7 C 43 % 1013,8 hPa 0,0 l/m 2 min 0 min 1,0 UV-I 425 W/m 8,4 km/h (2 Bft)
06.06.2014 18:34 25,1 C 21,7 C 45 % 1013,8 hPa 0,0 l/m 2 min 0 min 1,0 UV-I 418 W/m 12,6 km/h (3 Bft)
06.06.2014 18:36 25,1 C 21,7 C 44 % 1013,7 hPa 0,0 l/m 2 min 0 min 0,9 UV-I 413 W/m 10,5 km/h (2 Bft)
06.06.2014 18:38 25,1 C 21,7 C 43 % 1013,7 hPa 0,0 l/m 2 min 0 min 0,9 UV-I 413 W/m 6,3 km/h (2 Bft)
06.06.2014 18:40 25,1 C 21,7 C 43 % 1013,7 hPa 0,0 l/m 2 min 0 min 0,8 UV-I 401 W/m 4,2 km/h (1 Bft)
06.06.2014 18:42 25,1 C 21,1 C 42 % 1013,7 hPa 0,0 l/m 2 min 0 min 0,8 UV-I 396 W/m 6,3 km/h (2 Bft)
06.06.2014 18:44 25,0 C 21,1 C 43 % 1013,7 hPa 0,0 l/m 2 min 0 min 0,8 UV-I 388 W/m 2,1 km/h (1 Bft)
06.06.2014 18:46 25,0 C 21,7 C 43 % 1013,7 hPa 0,0 l/m 2 min 0 min 0,8 UV-I 383 W/m 2,1 km/h (1 Bft)
06.06.2014 18:48 25,0 C 21,7 C 44 % 1013,7 hPa 0,0 l/m 2 min 0 min 0,8 UV-I 380 W/m 8,4 km/h (2 Bft)
06.06.2014 18:50 24,9 C 22,2 C 44 % 1013,7 hPa 0,0 l/m 2 min 0 min 0,7 UV-I 373 W/m 12,6 km/h (3 Bft)
06.06.2014 18:52 24,9 C 22,2 C 45 % 1013,7 hPa 0,0 l/m 2 min 0 min 0,7 UV-I 367 W/m 12,6 km/h (3 Bft)
06.06.2014 18:54 24,8 C 22,2 C 44 % 1013,7 hPa 0,0 l/m 2 min 0 min 0,7 UV-I 362 W/m 10,5 km/h (2 Bft)
06.06.2014 18:56 24,8 C 22,8 C 45 % 1013,7 hPa 0,0 l/m 2 min 0 min 0,6 UV-I 355 W/m 12,6 km/h (3 Bft)
06.06.2014 18:58 24,8 C 22,8 C 44 % 1013,7 hPa 0,0 l/m 2 min 0 min 0,6 UV-I 352 W/m 10,5 km/h (2 Bft)
06.06.2014 19:00 24,8 C 22,2 C 45 % 1013,7 hPa 0,0 l/m 2 min 0 min 0,6 UV-I 346 W/m 8,4 km/h (2 Bft)
06.06.2014 19:02 24,7 C 22,2 C 45 % 1013,7 hPa 0,0 l/m 2 min 0 min 0,5 UV-I 339 W/m 12,6 km/h (3 Bft)
06.06.2014 19:04 24,7 C 22,2 C 46 % 1013,7 hPa 0,0 l/m 2 min 0 min 0,5 UV-I 334 W/m 10,5 km/h (2 Bft)
06.06.2014 19:06 24,8 C 22,8 C 45 % 1013,7 hPa 0,0 l/m 2 min 0 min 0,5 UV-I 329 W/m 6,3 km/h (2 Bft)
06.06.2014 19:08 24,8 C 22,2 C 46 % 1013,7 hPa 0,0 l/m 2 min 0 min 0,0 UV-I 323 W/m 8,4 km/h (2 Bft)
06.06.2014 19:10 24,8 C 22,2 C 46 % 1013,7 hPa 0,0 l/m 2 min 0 min 0,0 UV-I 318 W/m 12,6 km/h (3 Bft)
06.06.2014 19:12 24,8 C 22,8 C 44 % 1013,7 hPa 0,0 l/m 2 min 0 min 0,0 UV-I 315 W/m 12,6 km/h (3 Bft)
06.06.2014 19:14 24,7 C 22,8 C 45 % 1013,6 hPa 0,0 l/m 2 min 0 min 0,0 UV-I 308 W/m 10,5 km/h (2 Bft)
06.06.2014 19:16 24,7 C 22,8 C 45 % 1013,7 hPa 0,0 l/m 2 min 0 min 0,0 UV-I 302 W/m 10,5 km/h (2 Bft)
06.06.2014 19:18 24,7 C 22,8 C 45 % 1013,7 hPa 0,0 l/m 2 min 0 min 0,0 UV-I 297 W/m 14,6 km/h (3 Bft)
06.06.2014 19:20 24,7 C 22,2 C 46 % 1013,6 hPa 0,0 l/m 2 min 0 min 0,0 UV-I 292 W/m 14,6 km/h (3 Bft)
06.06.2014 19:22 24,6 C 22,2 C 45 % 1013,6 hPa 0,0 l/m 2 min 0 min 0,0 UV-I 287 W/m 12,6 km/h (3 Bft)
06.06.2014 19:24 24,7 C 22,2 C 46 % 1013,7 hPa 0,0 l/m 2 min 0 min 0,0 UV-I 283 W/m 10,5 km/h (2 Bft)
06.06.2014 19:26 24,7 C 22,8 C 45 % 1013,7 hPa 0,0 l/m 2 min 0 min 0,0 UV-I 276 W/m 14,6 km/h (3 Bft)
06.06.2014 19:28 24,7 C 22,8 C 45 % 1013,7 hPa 0,0 l/m 2 min 0 min 0,0 UV-I 272 W/m 14,6 km/h (3 Bft)
06.06.2014 19:30 24,7 C 22,8 C 45 % 1013,6 hPa 0,0 l/m 2 min 0 min 0,0 UV-I 267 W/m 10,5 km/h (2 Bft)
06.06.2014 19:32 24,7 C 22,8 C 45 % 1013,6 hPa 0,0 l/m 2 min 0 min 0,0 UV-I 260 W/m 8,4 km/h (2 Bft)
06.06.2014 19:34 24,7 C 22,8 C 45 % 1013,6 hPa 0,0 l/m 2 min 0 min 0,0 UV-I 255 W/m 10,5 km/h (2 Bft)
06.06.2014 19:36 24,7 C 22,8 C 44 % 1013,6 hPa 0,0 l/m 2 min 0 min 0,0 UV-I 251 W/m 10,5 km/h (2 Bft)
06.06.2014 19:38 24,6 C 22,2 C 45 % 1013,7 hPa 0,0 l/m 2 min 0 min 0,0 UV-I 244 W/m 10,5 km/h (2 Bft)
06.06.2014 19:40 24,6 C 22,2 C 46 % 1013,7 hPa 0,0 l/m 2 min 0 min 0,0 UV-I 239 W/m 8,4 km/h (2 Bft)
06.06.2014 19:42 24,5 C 22,2 C 46 % 1013,6 hPa 0,0 l/m 2 min 0 min 0,0 UV-I 236 W/m 10,5 km/h (2 Bft)
06.06.2014 19:44 24,5 C 22,2 C 46 % 1013,6 hPa 0,0 l/m 2 min 0 min 0,0 UV-I 229 W/m 10,5 km/h (2 Bft)
06.06.2014 19:46 24,6 C 22,2 C 46 % 1013,7 hPa 0,0 l/m 2 min 0 min 0,0 UV-I 225 W/m 8,4 km/h (2 Bft)
06.06.2014 19:48 24,6 C 22,2 C 46 % 1013,7 hPa 0,0 l/m 2 min 0 min 0,0 UV-I 221 W/m 10,5 km/h (2 Bft)
06.06.2014 19:50 24,6 C 22,2 C 46 % 1013,6 hPa 0,0 l/m 2 min 0 min 0,0 UV-I 214 W/m 8,4 km/h (2 Bft)
06.06.2014 19:52 24,6 C 22,2 C 47 % 1013,7 hPa 0,0 l/m 2 min 0 min 0,0 UV-I 211 W/m 6,3 km/h (2 Bft)
06.06.2014 19:54 24,6 C 22,2 C 46 % 1013,7 hPa 0,0 l/m 2 min 0 min 0,0 UV-I 204 W/m 8,4 km/h (2 Bft)
06.06.2014 19:56 24,6 C 22,2 C 46 % 1013,7 hPa 0,0 l/m 2 min 0 min 0,0 UV-I 199 W/m 8,4 km/h (2 Bft)
06.06.2014 19:58 24,6 C 22,2 C 46 % 1013,7 hPa 0,0 l/m 2 min 0 min 0,0 UV-I 195 W/m 6,3 km/h (2 Bft)
06.06.2014 20:00 24,6 C 22,2 C 45 % 1013,7 hPa 0,0 l/m 2 min 0 min 0,0 UV-I 188 W/m 6,3 km/h (2 Bft)
06.06.2014 20:02 24,6 C 22,2 C 45 % 1013,7 hPa 0,0 l/m 2 min 0 min 0,0 UV-I 185 W/m 2,1 km/h (1 Bft)
06.06.2014 20:04 24,5 C 22,2 C 46 % 1013,6 hPa 0,0 l/m 2 min 0 min 0,0 UV-I 181 W/m 8,4 km/h (2 Bft)
06.06.2014 20:06 24,5 C 21,7 C 46 % 1013,6 hPa 0,0 l/m 2 min 0 min 0,0 UV-I 174 W/m 2,1 km/h (1 Bft)
06.06.2014 20:08 24,4 C 21,7 C 47 % 1013,7 hPa 0,0 l/m 2 min 0 min 0,0 UV-I 171 W/m 2,1 km/h (1 Bft)
06.06.2014 20:10 24,3 C 21,7 C 48 % 1013,7 hPa 0,0 l/m 2 min 0 min 0,0 UV-I 167 W/m 10,5 km/h (2 Bft)
06.06.2014 20:12 24,3 C 21,7 C 49 % 1013,7 hPa 0,0 l/m 2 min 0 min 0,0 UV-I 162 W/m 10,5 km/h (2 Bft)
06.06.2014 20:14 24,2 C 21,7 C 50 % 1013,7 hPa 0,0 l/m 2 min 0 min 0,0 UV-I 158 W/m 8,4 km/h (2 Bft)
06.06.2014 20:16 24,2 C 21,7 C 51 % 1013,6 hPa 0,0 l/m 2 min 0 min 0,0 UV-I 155 W/m 8,4 km/h (2 Bft)
06.06.2014 20:18 24,1 C 21,7 C 51 % 1013,6 hPa 0,0 l/m 2 min 0 min 0,0 UV-I 148 W/m 6,3 km/h (2 Bft)
06.06.2014 20:20 24,0 C 21,7 C 51 % 1013,7 hPa 0,0 l/m 2 min 0 min 0,0 UV-I 144 W/m 8,4 km/h (2 Bft)
06.06.2014 20:22 23,9 C 21,7 C 51 % 1013,7 hPa 0,0 l/m 2 min 0 min 0,0 UV-I 141 W/m 2,1 km/h (1 Bft)
06.06.2014 20:24 23,9 C 21,7 C 52 % 1013,7 hPa 0,0 l/m 2 min 0 min 0,0 UV-I 134 W/m 8,4 km/h (2 Bft)
06.06.2014 20:26 23,8 C 21,7 C 52 % 1013,7 hPa 0,0 l/m 2 min 0 min 0,0 UV-I 130 W/m 8,4 km/h (2 Bft)
06.06.2014 20:28 23,8 C 21,7 C 53 % 1013,7 hPa 0,0 l/m 2 min 0 min 0,0 UV-I 125 W/m 10,5 km/h (2 Bft)
06.06.2014 20:30 23,7 C 21,7 C 53 % 1013,7 hPa 0,0 l/m 2 min 0 min 0,0 UV-I 118 W/m 10,5 km/h (2 Bft)
06.06.2014 20:32 23,6 C 21,7 C 53 % 1013,6 hPa 0,0 l/m 2 min 0 min 0,0 UV-I 114 W/m 10,5 km/h (2 Bft)
06.06.2014 20:34 23,6 C 21,7 C 53 % 1013,7 hPa 0,0 l/m 2 min 0 min 0,0 UV-I 109 W/m 10,5 km/h (2 Bft)
06.06.2014 20:36 23,5 C 21,1 C 54 % 1013,7 hPa 0,0 l/m 2 min 0 min 0,0 UV-I 104 W/m 6,3 km/h (2 Bft)
06.06.2014 20:38 23,4 C 21,1 C 54 % 1013,7 hPa 0,0 l/m 2 min 0 min 0,0 UV-I 100 W/m 8,4 km/h (2 Bft)
06.06.2014 20:40 23,4 C 21,1 C 54 % 1013,7 hPa 0,0 l/m 2 min 0 min 0,0 UV-I 95 W/m 10,5 km/h (2 Bft)
06.06.2014 20:42 23,3 C 21,1 C 54 % 1013,7 hPa 0,0 l/m 2 min 0 min 0,0 UV-I 90 W/m 10,5 km/h (2 Bft)
06.06.2014 20:44 23,3 C 21,1 C 54 % 1013,7 hPa 0,0 l/m 2 min 0 min 0,0 UV-I 84 W/m 8,4 km/h (2 Bft)
06.06.2014 20:46 23,3 C 21,1 C 54 % 1013,7 hPa 0,0 l/m 2 min 0 min 0,0 UV-I 81 W/m 8,4 km/h (2 Bft)
06.06.2014 20:48 23,3 C 21,1 C 54 % 1013,7 hPa 0,0 l/m 2 min 0 min 0,0 UV-I 76 W/m 8,4 km/h (2 Bft)
06.06.2014 20:50 23,2 C 20,6 C 55 % 1013,8 hPa 0,0 l/m 2 min 0 min 0,0 UV-I 72 W/m 6,3 km/h (2 Bft)
06.06.2014 20:52 23,1 C 20,6 C 55 % 1013,7 hPa 0,0 l/m 2 min 0 min 0,0 UV-I 69 W/m 2,1 km/h (1 Bft)
06.06.2014 20:54 23,0 C 20,6 C 56 % 1013,7 hPa 0,0 l/m 2 min 0 min 0,0 UV-I 63 W/m 8,4 km/h (2 Bft)
06.06.2014 20:56 22,9 C 20,6 C 56 % 1013,7 hPa 0,0 l/m 2 min 0 min 0,0 UV-I 60 W/m 8,4 km/h (2 Bft)
06.06.2014 20:58 22,9 C 20,6 C 57 % 1013,7 hPa 0,0 l/m 2 min 0 min 0,0 UV-I 56 W/m 6,3 km/h (2 Bft)
06.06.2014 21:00 22,8 C 20,0 C 57 % 1013,7 hPa 0,0 l/m 2 min 0 min 0,0 UV-I 51 W/m 0,0 km/h (0 Bft)
06.06.2014 21:02 22,8 C 20,0 C 58 % 1013,7 hPa 0,0 l/m 2 min 0 min 0,0 UV-I 47 W/m 0,0 km/h (0 Bft)
06.06.2014 21:04 22,7 C 20,0 C 58 % 1013,7 hPa 0,0 l/m 2 min 0 min 0,0 UV-I 44 W/m 0,0 km/h (0 Bft)
06.06.2014 21:06 22,7 C 20,0 C 58 % 1013,7 hPa 0,0 l/m 2 min 0 min 0,0 UV-I 40 W/m 2,1 km/h (1 Bft)
06.06.2014 21:08 22,5 C 20,0 C 58 % 1013,7 hPa 0,0 l/m 0 min 0 min 0,0 UV-I 37 W/m 2,1 km/h (1 Bft)
06.06.2014 21:10 22,4 C 20,0 C 59 % 1013,7 hPa 0,0 l/m 2 min 0 min 0,0 UV-I 35 W/m 8,4 km/h (2 Bft)
06.06.2014 21:12 22,3 C 20,0 C 58 % 1013,7 hPa 0,0 l/m 0 min 0 min 0,0 UV-I 30 W/m 8,4 km/h (2 Bft)
06.06.2014 21:14 22,3 C 20,0 C 58 % 1013,7 hPa 0,0 l/m 0 min 0 min 0,0 UV-I 28 W/m 10,5 km/h (2 Bft)
06.06.2014 21:16 22,2 C 20,0 C 58 % 1013,7 hPa 0,0 l/m 0 min 0 min 0,0 UV-I 25 W/m 10,5 km/h (2 Bft)
06.06.2014 21:18 22,2 C 20,0 C 58 % 1013,7 hPa 0,0 l/m 0 min 0 min 0,0 UV-I 23 W/m 8,4 km/h (2 Bft)
06.06.2014 21:20 22,1 C 20,0 C 58 % 1013,7 hPa 0,0 l/m 0 min 0 min 0,0 UV-I 21 W/m 8,4 km/h (2 Bft)
06.06.2014 21:22 22,0 C 20,0 C 58 % 1013,8 hPa 0,0 l/m 0 min 0 min 0,0 UV-I 18 W/m 10,5 km/h (2 Bft)
06.06.2014 21:24 21,9 C 20,0 C 58 % 1013,8 hPa 0,0 l/m 0 min 0 min 0,0 UV-I 16 W/m 8,4 km/h (2 Bft)
06.06.2014 21:26 21,8 C 19,4 C 58 % 1013,7 hPa 0,0 l/m 0 min 0 min 0,0 UV-I 16 W/m 6,3 km/h (2 Bft)
06.06.2014 21:28 21,8 C 19,4 C 58 % 1013,8 hPa 0,0 l/m 0 min 0 min 0,0 UV-I 14 W/m 10,5 km/h (2 Bft)
06.06.2014 21:30 21,8 C 19,4 C 58 % 1013,8 hPa 0,0 l/m 0 min 0 min 0,0 UV-I 12 W/m 8,4 km/h (2 Bft)
06.06.2014 21:32 21,7 C 19,4 C 59 % 1013,9 hPa 0,0 l/m 0 min 0 min 0,0 UV-I 11 W/m 8,4 km/h (2 Bft)
06.06.2014 21:34 21,6 C 19,4 C 59 % 1013,7 hPa 0,0 l/m 0 min 0 min 0,0 UV-I 11 W/m 8,4 km/h (2 Bft)
06.06.2014 21:36 21,6 C 19,4 C 58 % 1013,8 hPa 0,0 l/m 0 min 0 min 0,0 UV-I 9 W/m 8,4 km/h (2 Bft)
06.06.2014 21:38 21,6 C 19,4 C 59 % 1013,9 hPa 0,0 l/m 0 min 0 min 0,0 UV-I 7 W/m 10,5 km/h (2 Bft)
06.06.2014 21:40 21,5 C 19,4 C 59 % 1013,8 hPa 0,0 l/m 0 min 0 min 0,0 UV-I 7 W/m 6,3 km/h (2 Bft)
06.06.2014 21:42 21,4 C 18,9 C 59 % 1014,0 hPa 0,0 l/m 0 min 0 min 0,0 UV-I 7 W/m 8,4 km/h (2 Bft)
06.06.2014 21:44 21,2 C 18,9 C 60 % 1013,9 hPa 0,0 l/m 0 min 0 min 0,0 UV-I 5 W/m 2,1 km/h (1 Bft)
06.06.2014 21:46 21,1 C 18,3 C 60 % 1014,0 hPa 0,0 l/m 0 min 0 min 0,0 UV-I 5 W/m 0,0 km/h (0 Bft)
06.06.2014 21:48 21,0 C 18,3 C 61 % 1014,0 hPa 0,0 l/m 0 min 0 min 0,0 UV-I 5 W/m 4,2 km/h (1 Bft)
06.06.2014 21:50 20,8 C 17,8 C 62 % 1014,1 hPa 0,0 l/m 0 min 0 min 0,0 UV-I 0 W/m 0,0 km/h (0 Bft)
06.06.2014 21:52 20,6 C 17,8 C 62 % 1014,1 hPa 0,0 l/m 0 min 0 min 0,0 UV-I 0 W/m 2,1 km/h (1 Bft)
06.06.2014 21:54 20,4 C 17,2 C 64 % 1014,1 hPa 0,0 l/m 0 min 0 min 0,0 UV-I 0 W/m 0,0 km/h (0 Bft)
06.06.2014 21:56 20,2 C 17,2 C 64 % 1014,1 hPa 0,0 l/m 0 min 0 min 0,0 UV-I 0 W/m 0,0 km/h (0 Bft)
06.06.2014 21:58 20,1 C 17,2 C 64 % 1014,1 hPa 0,0 l/m 0 min 0 min 0,0 UV-I 0 W/m 2,1 km/h (1 Bft)
06.06.2014 22:00 20,1 C 16,7 C 64 % 1014,1 hPa 0,0 l/m 0 min 0 min 0,0 UV-I 0 W/m 0,0 km/h (0 Bft)
06.06.2014 22:02 20,1 C 16,7 C 65 % 1014,1 hPa 0,0 l/m 0 min 0 min 0,0 UV-I 0 W/m 0,0 km/h (0 Bft)
06.06.2014 22:04 19,8 C 16,7 C 66 % 1014,1 hPa 0,0 l/m 0 min 0 min 0,0 UV-I 0 W/m 0,0 km/h (0 Bft)
06.06.2014 22:06 19,7 C 16,7 C 66 % 1014,1 hPa 0,0 l/m 0 min 0 min 0,0 UV-I 0 W/m 0,0 km/h (0 Bft)
06.06.2014 22:08 19,5 C 16,1 C 67 % 1014,1 hPa 0,0 l/m 0 min 0 min 0,0 UV-I 0 W/m 0,0 km/h (0 Bft)
06.06.2014 22:10 19,4 C 16,1 C 67 % 1014,1 hPa 0,0 l/m 0 min 0 min 0,0 UV-I 0 W/m 0,0 km/h (0 Bft)
06.06.2014 22:12 19,2 C 16,1 C 67 % 1014,1 hPa 0,0 l/m 0 min 0 min 0,0 UV-I 0 W/m 0,0 km/h (0 Bft)
06.06.2014 22:14 19,1 C 16,1 C 69 % 1014,1 hPa 0,0 l/m 0 min 0 min 0,0 UV-I 0 W/m 2,1 km/h (1 Bft)
06.06.2014 22:16 19,0 C 15,6 C 70 % 1014,1 hPa 0,0 l/m 0 min 0 min 0,0 UV-I 0 W/m 0,0 km/h (0 Bft)
06.06.2014 22:18 18,9 C 15,6 C 69 % 1014,1 hPa 0,0 l/m 0 min 0 min 0,0 UV-I 0 W/m 0,0 km/h (0 Bft)
06.06.2014 22:20 18,9 C 15,6 C 70 % 1014,1 hPa 0,0 l/m 0 min 0 min 0,0 UV-I 0 W/m 0,0 km/h (0 Bft)
06.06.2014 22:22 18,8 C 15,6 C 70 % 1014,2 hPa 0,0 l/m 0 min 0 min 0,0 UV-I 0 W/m 0,0 km/h (0 Bft)
06.06.2014 22:24 18,7 C 15,6 C 70 % 1014,2 hPa 0,0 l/m 0 min 0 min 0,0 UV-I 0 W/m 2,1 km/h (1 Bft)
06.06.2014 22:26 18,6 C 15,0 C 70 % 1014,2 hPa 0,0 l/m 0 min 0 min 0,0 UV-I 0 W/m 0,0 km/h (0 Bft)
06.06.2014 22:28 18,6 C 15,0 C 70 % 1014,2 hPa 0,0 l/m 0 min 0 min 0,0 UV-I 0 W/m 0,0 km/h (0 Bft)
06.06.2014 22:30 18,4 C 15,0 C 71 % 1014,2 hPa 0,0 l/m 0 min 0 min 0,0 UV-I 0 W/m 0,0 km/h (0 Bft)
06.06.2014 22:32 18,3 C 15,0 C 71 % 1014,2 hPa 0,0 l/m 0 min 0 min 0,0 UV-I 0 W/m 0,0 km/h (0 Bft)
06.06.2014 22:34 18,2 C 15,0 C 71 % 1014,2 hPa 0,0 l/m 0 min 0 min 0,0 UV-I 0 W/m 0,0 km/h (0 Bft)
06.06.2014 22:36 18,2 C 15,0 C 71 % 1014,2 hPa 0,0 l/m 0 min 0 min 0,0 UV-I 0 W/m 0,0 km/h (0 Bft)
06.06.2014 22:38 18,1 C 15,0 C 72 % 1014,1 hPa 0,0 l/m 0 min 0 min 0,0 UV-I 0 W/m 0,0 km/h (0 Bft)
06.06.2014 22:40 18,0 C 15,0 C 72 % 1014,2 hPa 0,0 l/m 0 min 0 min 0,0 UV-I 0 W/m 8,4 km/h (2 Bft)
06.06.2014 22:42 17,9 C 15,0 C 73 % 1014,2 hPa 0,0 l/m 0 min 0 min 0,0 UV-I 0 W/m 4,2 km/h (1 Bft)
06.06.2014 22:44 17,8 C 15,0 C 73 % 1014,2 hPa 0,0 l/m 0 min 0 min 0,0 UV-I 0 W/m 0,0 km/h (0 Bft)
06.06.2014 22:46 17,8 C 15,0 C 73 % 1014,2 hPa 0,0 l/m 0 min 0 min 0,0 UV-I 0 W/m 4,2 km/h (1 Bft)
06.06.2014 22:48 17,7 C 14,4 C 73 % 1014,3 hPa 0,0 l/m 0 min 0 min 0,0 UV-I 0 W/m 2,1 km/h (1 Bft)
06.06.2014 22:50 17,7 C 14,4 C 73 % 1014,2 hPa 0,0 l/m 0 min 0 min 0,0 UV-I 0 W/m 0,0 km/h (0 Bft)
06.06.2014 22:52 17,7 C 14,4 C 73 % 1014,2 hPa 0,0 l/m 0 min 0 min 0,0 UV-I 0 W/m 0,0 km/h (0 Bft)
06.06.2014 22:54 17,8 C 14,4 C 72 % 1014,1 hPa 0,0 l/m 0 min 0 min 0,0 UV-I 0 W/m 0,0 km/h (0 Bft)
06.06.2014 22:56 17,9 C 14,4 C 71 % 1014,1 hPa 0,0 l/m 0 min 0 min 0,0 UV-I 0 W/m 0,0 km/h (0 Bft)
06.06.2014 22:58 18,0 C 14,4 C 71 % 1014,1 hPa 0,0 l/m 0 min 0 min 0,0 UV-I 0 W/m 0,0 km/h (0 Bft)
06.06.2014 23:00 17,9 C 14,4 C 71 % 1014,2 hPa 0,0 l/m 0 min 0 min 0,0 UV-I 0 W/m 0,0 km/h (0 Bft)
06.06.2014 23:02 17,9 C 14,4 C 72 % 1014,2 hPa 0,0 l/m 0 min 0 min 0,0 UV-I 0 W/m 0,0 km/h (0 Bft)
06.06.2014 23:04 17,8 C 14,4 C 72 % 1014,1 hPa 0,0 l/m 0 min 0 min 0,0 UV-I 0 W/m 2,1 km/h (1 Bft)
06.06.2014 23:06 17,7 C 14,4 C 73 % 1014,1 hPa 0,0 l/m 0 min 0 min 0,0 UV-I 0 W/m 0,0 km/h (0 Bft)
06.06.2014 23:08 17,6 C 14,4 C 73 % 1014,0 hPa 0,0 l/m 0 min 0 min 0,0 UV-I 0 W/m 0,0 km/h (0 Bft)
06.06.2014 23:10 17,6 C 14,4 C 73 % 1014,0 hPa 0,0 l/m 0 min 0 min 0,0 UV-I 0 W/m 0,0 km/h (0 Bft)
06.06.2014 23:12 17,6 C 14,4 C 73 % 1014,0 hPa 0,0 l/m 0 min 0 min 0,0 UV-I 0 W/m 2,1 km/h (1 Bft)
06.06.2014 23:14 17,5 C 14,4 C 73 % 1014,1 hPa 0,0 l/m 0 min 0 min 0,0 UV-I 0 W/m 2,1 km/h (1 Bft)
06.06.2014 23:16 17,4 C 13,9 C 73 % 1014,0 hPa 0,0 l/m 0 min 0 min 0,0 UV-I 0 W/m 6,3 km/h (2 Bft)
06.06.2014 23:18 17,4 C 13,9 C 73 % 1014,2 hPa 0,0 l/m 0 min 0 min 0,0 UV-I 0 W/m 6,3 km/h (2 Bft)
06.06.2014 23:20 17,4 C 13,9 C 73 % 1014,1 hPa 0,0 l/m 0 min 0 min 0,0 UV-I 0 W/m 8,4 km/h (2 Bft)
06.06.2014 23:22 17,6 C 13,9 C 72 % 1014,1 hPa 0,0 l/m 0 min 0 min 0,0 UV-I 0 W/m 6,3 km/h (2 Bft)
06.06.2014 23:24 17,7 C 13,9 C 72 % 1014,1 hPa 0,0 l/m 0 min 0 min 0,0 UV-I 0 W/m 0,0 km/h (0 Bft)
06.06.2014 23:26 17,7 C 13,9 C 72 % 1014,1 hPa 0,0 l/m 0 min 0 min 0,0 UV-I 0 W/m 0,0 km/h (0 Bft)
06.06.2014 23:28 17,8 C 13,9 C 71 % 1014,1 hPa 0,0 l/m 0 min 0 min 0,0 UV-I 0 W/m 2,1 km/h (1 Bft)
06.06.2014 23:30 17,8 C 13,9 C 71 % 1014,1 hPa 0,0 l/m 0 min 0 min 0,0 UV-I 0 W/m 2,1 km/h (1 Bft)
06.06.2014 23:32 17,8 C 13,9 C 71 % 1014,2 hPa 0,0 l/m 0 min 0 min 0,0 UV-I 0 W/m 6,3 km/h (2 Bft)
06.06.2014 23:34 17,8 C 13,9 C 71 % 1014,1 hPa 0,0 l/m 0 min 0 min 0,0 UV-I 0 W/m 6,3 km/h (2 Bft)
06.06.2014 23:36 17,8 C 13,9 C 71 % 1014,1 hPa 0,0 l/m 0 min 0 min 0,0 UV-I 0 W/m 2,1 km/h (1 Bft)
06.06.2014 23:38 17,8 C 13,9 C 71 % 1014,2 hPa 0,0 l/m 0 min 0 min 0,0 UV-I 0 W/m 0,0 km/h (0 Bft)
06.06.2014 23:40 17,8 C 13,9 C 71 % 1014,1 hPa 0,0 l/m 0 min 0 min 0,0 UV-I 0 W/m 2,1 km/h (1 Bft)
06.06.2014 23:42 17,7 C 13,9 C 71 % 1014,2 hPa 0,0 l/m 0 min 0 min 0,0 UV-I 0 W/m 0,0 km/h (0 Bft)
06.06.2014 23:44 17,7 C 13,9 C 72 % 1014,1 hPa 0,0 l/m 0 min 0 min 0,0 UV-I 0 W/m 2,1 km/h (1 Bft)
06.06.2014 23:46 17,5 C 13,9 C 73 % 1014,1 hPa 0,0 l/m 0 min 0 min 0,0 UV-I 0 W/m 0,0 km/h (0 Bft)
06.06.2014 23:48 17,4 C 13,9 C 73 % 1014,2 hPa 0,0 l/m 0 min 0 min 0,0 UV-I 0 W/m 0,0 km/h (0 Bft)
06.06.2014 23:50 17,4 C 13,9 C 73 % 1014,2 hPa 0,0 l/m 0 min 0 min 0,0 UV-I 0 W/m 0,0 km/h (0 Bft)
06.06.2014 23:52 17,3 C 13,9 C 74 % 1014,2 hPa 0,0 l/m 0 min 0 min 0,0 UV-I 0 W/m 0,0 km/h (0 Bft)
06.06.2014 23:54 17,2 C 13,9 C 74 % 1014,2 hPa 0,0 l/m 0 min 0 min 0,0 UV-I 0 W/m 0,0 km/h (0 Bft)
06.06.2014 23:56 17,2 C 13,9 C 74 % 1014,2 hPa 0,0 l/m 0 min 0 min 0,0 UV-I 0 W/m 0,0 km/h (0 Bft)
06.06.2014 23:58 17,1 C 13,9 C 75 % 1014,2 hPa 0,0 l/m 0 min 0 min 0,0 UV-I 0 W/m 0,0 km/h (0 Bft)
_ Min-Zeit 05:18 04:05 17:12 19:14 - - - - - 00:00
Minimum _ 7,8 C 6,7 C 41 % 1013,6 hPa - - - - - 0,0 km/h (0 Bft)
_ Max-Zeit 16:42 12:02 06:28 08:32 00:00 07:00 00:00 13:20 14:40 12:50
Maximum _ 26,0 C 27,2 C 100 % 1017,2 hPa 0,0 l/m 2 min 0 min 5,8 UV-I 828 W/m 25,1 km/h
S-SW (4 Bft)
Durchschnitt _ 17,6 C 16,3 C 69 % 1015,5 hPa #0,0 l/m #13:50 h #0 min. 3,5 UV-I 464 W/m 7,5 km/h (2 Bft)
© 2014 W. Hausmann